Time,TemperatureF,DewpointF,PressureIn,WindDirection,WindDirectionDegrees,WindSpeedMPH,WindSpeedGustMPH,Humidity,HourlyPrecipIn,Conditions,Clouds,dailyrainin,SoftwareType,DateUTC
2013-08-27 00:02:00,76.1,72.6,28.76,South,180,0.0,0.0,89,0.00,CLR,,0.00,WeatherDisplay:10.37,2013-08-27 05:02:00,
2013-08-27 00:03:00,76.1,72.6,28.76,South,180,0.0,0.0,89,0.00,CLR,,0.00,WeatherDisplay:10.37,2013-08-27 05:03:00,
2013-08-27 00:04:00,76.1,72.6,28.76,South,180,0.0,0.0,89,0.00,CLR,,0.00,WeatherDisplay:10.37,2013-08-27 05:04:00,
2013-08-27 00:05:00,76.1,72.6,28.76,South,180,0.0,0.0,89,0.00,CLR,,0.00,WeatherDisplay:10.37,2013-08-27 05:05:00,
2013-08-27 00:07:00,76.1,72.6,28.76,South,180,0.0,0.0,89,0.00,CLR,,0.00,WeatherDisplay:10.37,2013-08-27 05:07:00,
2013-08-27 00:08:00,76.1,72.6,28.76,South,180,0.0,0.0,89,0.00,CLR,,0.00,WeatherDisplay:10.37,2013-08-27 05:08:00,
2013-08-27 00:10:00,75.9,72.4,28.76,South,180,0.0,0.0,89,0.00,CLR,,0.00,WeatherDisplay:10.37,2013-08-27 05:10:00,
2013-08-27 00:12:00,75.7,72.3,28.76,South,180,0.0,0.0,89,0.00,CLR,,0.00,WeatherDisplay:10.37,2013-08-27 05:12:00,
2013-08-27 00:13:00,75.6,72.1,28.76,South,180,0.0,0.0,89,0.00,CLR,,0.00,WeatherDisplay:10.37,2013-08-27 05:13:00,
2013-08-27 00:15:00,75.6,72.1,28.76,South,180,0.0,0.0,89,0.00,CLR,,0.00,WeatherDisplay:10.37,2013-08-27 05:15:00,
2013-08-27 00:18:00,75.4,71.9,28.76,South,180,0.0,0.0,89,0.00,CLR,,0.00,WeatherDisplay:10.37,2013-08-27 05:18:00,
2013-08-27 00:20:00,75.4,71.9,28.76,South,180,0.0,0.0,89,0.00,CLR,,0.00,WeatherDisplay:10.37,2013-08-27 05:20:00,
2013-08-27 00:23:00,75.2,71.7,28.76,South,180,0.0,0.0,89,0.00,CLR,,0.00,WeatherDisplay:10.37,2013-08-27 05:23:00,
2013-08-27 00:25:00,75.0,71.6,28.73,South,180,0.0,0.0,89,0.00,CLR,,0.00,WeatherDisplay:10.37,2013-08-27 05:25:00,
2013-08-27 00:28:00,75.0,71.9,28.73,South,180,0.0,0.0,90,0.00,CLR,,0.00,WeatherDisplay:10.37,2013-08-27 05:28:00,
2013-08-27 00:29:00,74.8,71.7,28.73,WNW,292,0.0,0.0,90,0.00,CLR,,0.00,WeatherDisplay:10.37,2013-08-27 05:29:00,
2013-08-27 00:30:00,74.8,71.7,28.73,WNW,292,0.0,0.0,90,0.00,CLR,,0.00,WeatherDisplay:10.37,2013-08-27 05:30:00,
2013-08-27 00:33:00,74.8,71.7,28.73,NW,315,0.0,0.0,90,0.00,CLR,,0.00,WeatherDisplay:10.37,2013-08-27 05:33:00,
2013-08-27 00:34:00,74.8,71.7,28.73,NW,315,0.0,0.0,90,0.00,CLR,,0.00,WeatherDisplay:10.37,2013-08-27 05:34:00,
2013-08-27 00:35:00,74.8,71.7,28.73,NW,315,0.0,0.0,90,0.00,CLR,,0.00,WeatherDisplay:10.37,2013-08-27 05:35:00,
2013-08-27 00:36:00,74.8,71.7,28.73,NW,315,0.0,0.0,90,0.00,CLR,,0.00,WeatherDisplay:10.37,2013-08-27 05:36:00,
2013-08-27 00:38:00,74.8,71.7,28.73,NW,315,0.0,0.0,90,0.00,CLR,,0.00,WeatherDisplay:10.37,2013-08-27 05:38:00,
2013-08-27 00:39:00,74.8,71.7,28.73,NW,315,0.0,0.0,90,0.00,CLR,,0.00,WeatherDisplay:10.37,2013-08-27 05:39:00,
2013-08-27 00:40:00,74.8,71.7,28.73,NW,315,0.0,0.0,90,0.00,CLR,,0.00,WeatherDisplay:10.37,2013-08-27 05:40:00,
2013-08-27 00:41:00,74.8,71.7,28.73,NW,315,0.0,0.0,90,0.00,CLR,,0.00,WeatherDisplay:10.37,2013-08-27 05:41:00,
2013-08-27 00:42:00,74.8,71.7,28.73,NW,315,0.0,0.0,90,0.00,CLR,,0.00,WeatherDisplay:10.37,2013-08-27 05:42:00,
2013-08-27 00:43:00,75.0,71.9,28.73,WNW,292,0.0,0.0,90,0.00,CLR,,0.00,WeatherDisplay:10.37,2013-08-27 05:43:00,
2013-08-27 00:44:00,75.0,71.9,28.73,NW,308,0.0,0.0,90,0.00,CLR,,0.00,WeatherDisplay:10.37,2013-08-27 05:44:00,
2013-08-27 00:45:00,75.0,71.9,28.73,WNW,292,0.0,0.0,90,0.00,CLR,,0.00,WeatherDisplay:10.37,2013-08-27 05:45:00,
2013-08-27 00:46:00,75.0,71.9,28.73,WNW,292,0.0,0.0,90,0.00,CLR,,0.00,WeatherDisplay:10.37,2013-08-27 05:46:00,
2013-08-27 00:47:00,75.2,72.1,28.73,WNW,292,0.0,0.0,90,0.00,CLR,,0.00,WeatherDisplay:10.37,2013-08-27 05:47:00,
2013-08-27 00:48:00,75.0,71.9,28.73,WNW,292,0.0,0.0,90,0.00,CLR,,0.00,WeatherDisplay:10.37,2013-08-27 05:48:00,
2013-08-27 00:50:00,75.0,71.9,28.73,WNW,292,0.0,0.0,90,0.00,CLR,,0.00,WeatherDisplay:10.37,2013-08-27 05:50:00,
2013-08-27 00:51:00,75.0,71.9,28.73,WNW,292,0.0,0.0,90,0.00,CLR,,0.00,WeatherDisplay:10.37,2013-08-27 05:51:00,
2013-08-27 00:52:00,75.0,71.9,28.73,WNW,292,0.0,0.0,90,0.00,CLR,,0.00,WeatherDisplay:10.37,2013-08-27 05:52:00,
2013-08-27 00:53:00,75.0,71.9,28.73,WNW,292,0.0,0.0,90,0.00,CLR,,0.00,WeatherDisplay:10.37,2013-08-27 05:53:00,
2013-08-27 00:55:00,75.0,71.9,28.76,WNW,292,0.0,0.0,90,0.00,CLR,,0.00,WeatherDisplay:10.37,2013-08-27 05:55:00,
2013-08-27 00:56:00,75.0,71.9,28.76,WNW,292,0.0,0.0,90,0.00,CLR,,0.00,WeatherDisplay:10.37,2013-08-27 05:56:00,
2013-08-27 00:57:00,75.0,71.9,28.76,SSE,158,1.2,1.2,90,0.00,CLR,,0.00,WeatherDisplay:10.37,2013-08-27 05:57:00,
2013-08-27 00:58:00,75.2,72.1,28.76,SSE,158,1.2,0.0,90,0.00,CLR,,0.00,WeatherDisplay:10.37,2013-08-27 05:58:00,
2013-08-27 01:00:00,75.2,72.1,28.76,SSE,158,0.0,0.0,90,0.00,CLR,,0.00,WeatherDisplay:10.37,2013-08-27 06:00:00,
2013-08-27 01:01:00,75.2,72.1,28.76,SSE,158,0.0,0.0,90,0.00,CLR,,0.00,WeatherDisplay:10.37,2013-08-27 06:01:00,
2013-08-27 01:02:00,75.2,72.1,28.76,SSE,158,0.0,0.0,90,0.00,CLR,,0.00,WeatherDisplay:10.37,2013-08-27 06:02:00,
2013-08-27 01:03:00,75.2,72.1,28.76,SSE,158,0.0,0.0,90,0.00,CLR,,0.00,WeatherDisplay:10.37,2013-08-27 06:03:00,
2013-08-27 01:04:00,75.4,72.2,28.76,SSE,158,0.0,0.0,90,0.00,CLR,,0.00,WeatherDisplay:10.37,2013-08-27 06:04:00,
2013-08-27 01:05:00,75.4,72.2,28.76,SSE,158,0.0,0.0,90,0.00,CLR,,0.00,WeatherDisplay:10.37,2013-08-27 06:05:00,
2013-08-27 01:06:00,75.4,72.2,28.76,SSE,158,0.0,0.0,90,0.00,CLR,,0.00,WeatherDisplay:10.37,2013-08-27 06:06:00,
2013-08-27 01:07:00,75.4,72.2,28.76,SSE,158,0.0,0.0,90,0.00,CLR,,0.00,WeatherDisplay:10.37,2013-08-27 06:07:00,
2013-08-27 01:08:00,75.4,72.2,28.76,SSE,158,0.0,0.0,90,0.00,CLR,,0.00,WeatherDisplay:10.37,2013-08-27 06:08:00,
2013-08-27 01:09:00,75.2,72.1,28.76,SSE,158,0.0,0.0,90,0.00,CLR,,0.00,WeatherDisplay:10.37,2013-08-27 06:09:00,
2013-08-27 01:10:00,75.2,72.1,28.73,SSE,158,0.0,0.0,90,0.00,CLR,,0.00,WeatherDisplay:10.37,2013-08-27 06:10:00,
2013-08-27 01:11:00,75.2,72.1,28.73,SSE,158,0.0,0.0,90,0.00,CLR,,0.00,WeatherDisplay:10.37,2013-08-27 06:11:00,
2013-08-27 01:12:00,75.2,72.1,28.73,SSE,158,0.0,0.0,90,0.00,CLR,,0.00,WeatherDisplay:10.37,2013-08-27 06:12:00,
2013-08-27 01:13:00,75.2,72.1,28.73,SSE,158,0.0,0.0,90,0.00,CLR,,0.00,WeatherDisplay:10.37,2013-08-27 06:13:00,
2013-08-27 01:14:00,75.2,72.1,28.73,SSE,158,0.0,0.0,90,0.00,CLR,,0.00,WeatherDisplay:10.37,2013-08-27 06:14:00,
2013-08-27 01:16:00,75.2,72.1,28.73,SSE,158,0.0,0.0,90,0.00,CLR,,0.00,WeatherDisplay:10.37,2013-08-27 06:16:00,
2013-08-27 01:17:00,75.2,72.1,28.73,SSE,158,0.0,0.0,90,0.00,CLR,,0.00,WeatherDisplay:10.37,2013-08-27 06:17:00,
2013-08-27 01:18:00,75.2,72.1,28.73,SSE,158,0.0,0.0,90,0.00,CLR,,0.00,WeatherDisplay:10.37,2013-08-27 06:18:00,
2013-08-27 01:19:00,75.2,72.1,28.73,SSE,158,0.0,0.0,90,0.00,CLR,,0.00,WeatherDisplay:10.37,2013-08-27 06:19:00,
2013-08-27 01:21:00,75.2,72.1,28.73,SSE,158,0.0,0.0,90,0.00,CLR,,0.00,WeatherDisplay:10.37,2013-08-27 06:21:00,
2013-08-27 01:23:00,75.2,72.1,28.73,SSE,158,0.0,0.0,90,0.00,CLR,,0.00,WeatherDisplay:10.37,2013-08-27 06:23:00,
2013-08-27 01:25:00,75.4,71.9,28.73,SSE,158,0.0,0.0,89,0.00,CLR,,0.00,WeatherDisplay:10.37,2013-08-27 06:25:00,
2013-08-27 01:26:00,75.4,71.9,28.73,SSE,158,0.0,0.0,89,0.00,CLR,,0.00,WeatherDisplay:10.37,2013-08-27 06:26:00,
2013-08-27 01:27:00,75.4,71.9,28.73,SSE,158,0.0,0.0,89,0.00,CLR,,0.00,WeatherDisplay:10.37,2013-08-27 06:27:00,
2013-08-27 01:28:00,75.2,71.7,28.73,SSE,158,0.0,0.0,89,0.00,CLR,,0.00,WeatherDisplay:10.37,2013-08-27 06:28:00,
2013-08-27 01:29:00,75.2,71.7,28.73,SSE,158,0.0,0.0,89,0.00,CLR,,0.00,WeatherDisplay:10.37,2013-08-27 06:29:00,
2013-08-27 01:30:00,75.4,71.9,28.73,SSE,158,1.2,1.2,89,0.00,CLR,,0.00,WeatherDisplay:10.37,2013-08-27 06:30:00,
2013-08-27 01:32:00,75.6,72.1,28.73,SSE,158,2.3,2.3,89,0.00,CLR,,0.00,WeatherDisplay:10.37,2013-08-27 06:32:00,
2013-08-27 01:33:00,75.6,72.1,28.73,SSE,158,2.3,2.3,89,0.00,CLR,,0.00,WeatherDisplay:10.37,2013-08-27 06:33:00,
2013-08-27 01:34:00,75.6,72.1,28.73,SSE,158,2.3,2.3,89,0.00,CLR,,0.00,WeatherDisplay:10.37,2013-08-27 06:34:00,
2013-08-27 01:35:00,75.6,72.1,28.73,SSE,158,1.2,0.0,89,0.00,CLR,,0.00,WeatherDisplay:10.37,2013-08-27 06:35:00,
2013-08-27 01:37:00,75.6,72.1,28.73,SSE,158,2.3,0.0,89,0.00,CLR,,0.00,WeatherDisplay:10.37,2013-08-27 06:37:00,
2013-08-27 01:38:00,75.6,72.1,28.73,SSE,158,1.2,0.0,89,0.00,CLR,,0.00,WeatherDisplay:10.37,2013-08-27 06:38:00,
2013-08-27 01:39:00,75.6,72.1,28.73,SW,225,0.0,0.0,89,0.00,CLR,,0.00,WeatherDisplay:10.37,2013-08-27 06:39:00,
2013-08-27 01:40:00,75.6,72.1,28.73,SSE,158,0.0,0.0,89,0.00,CLR,,0.00,WeatherDisplay:10.37,2013-08-27 06:40:00,
2013-08-27 01:42:00,75.6,72.1,28.73,SSE,158,0.0,0.0,89,0.00,CLR,,0.00,WeatherDisplay:10.37,2013-08-27 06:42:00,
2013-08-27 01:44:00,75.4,71.9,28.73,SSE,158,0.0,0.0,89,0.00,CLR,,0.00,WeatherDisplay:10.37,2013-08-27 06:44:00,
2013-08-27 01:45:00,75.4,71.9,28.73,West,270,0.0,0.0,89,0.00,CLR,,0.00,WeatherDisplay:10.37,2013-08-27 06:45:00,
2013-08-27 01:47:00,75.2,71.4,28.73,West,270,0.0,0.0,88,0.00,CLR,,0.00,WeatherDisplay:10.37,2013-08-27 06:47:00,
2013-08-27 01:49:00,75.2,71.4,28.73,WSW,248,1.4,1.4,88,0.00,CLR,,0.00,WeatherDisplay:10.37,2013-08-27 06:49:00,
2013-08-27 01:50:00,75.2,71.7,28.73,WSW,248,1.2,0.0,89,0.00,CLR,,0.00,WeatherDisplay:10.37,2013-08-27 06:50:00,
2013-08-27 01:52:00,75.4,71.9,28.73,SSW,202,2.3,2.3,89,0.00,CLR,,0.00,WeatherDisplay:10.37,2013-08-27 06:52:00,
2013-08-27 01:53:00,75.4,71.9,28.73,SSW,202,1.2,0.0,89,0.00,CLR,,0.00,WeatherDisplay:10.37,2013-08-27 06:53:00,
2013-08-27 01:54:00,75.4,71.9,28.73,SSW,202,1.2,0.0,89,0.00,CLR,,0.00,WeatherDisplay:10.37,2013-08-27 06:54:00,
2013-08-27 01:55:00,75.4,71.6,28.70,SSW,202,1.2,0.0,88,0.00,CLR,,0.00,WeatherDisplay:10.37,2013-08-27 06:55:00,
2013-08-27 01:56:00,75.4,71.6,28.70,SSW,202,1.2,0.0,88,0.00,CLR,,0.00,WeatherDisplay:10.37,2013-08-27 06:56:00,
2013-08-27 01:58:00,75.4,71.6,28.70,SSW,202,1.6,0.0,88,0.00,CLR,,0.00,WeatherDisplay:10.37,2013-08-27 06:58:00,
2013-08-27 02:00:00,75.4,71.6,28.70,SSW,202,1.2,0.0,88,0.00,CLR,,0.00,WeatherDisplay:10.37,2013-08-27 07:00:00,
2013-08-27 02:01:00,75.6,71.8,28.70,SSE,158,2.3,2.3,88,0.00,CLR,,0.00,WeatherDisplay:10.37,2013-08-27 07:01:00,
2013-08-27 02:03:00,75.6,71.8,28.70,South,180,1.2,0.0,88,0.00,CLR,,0.00,WeatherDisplay:10.37,2013-08-27 07:03:00,
2013-08-27 02:05:00,75.6,71.8,28.70,South,180,1.2,1.2,88,0.00,CLR,,0.00,WeatherDisplay:10.37,2013-08-27 07:05:00,
2013-08-27 02:07:00,75.7,71.9,28.70,South,180,0.0,0.0,88,0.00,CLR,,0.00,WeatherDisplay:10.37,2013-08-27 07:07:00,
2013-08-27 02:08:00,75.7,71.9,28.70,SW,225,0.0,0.0,88,0.00,CLR,,0.00,WeatherDisplay:10.37,2013-08-27 07:08:00,
2013-08-27 02:10:00,75.7,71.9,28.73,ESE,112,1.2,1.2,88,0.00,CLR,,0.00,WeatherDisplay:10.37,2013-08-27 07:10:00,
2013-08-27 02:12:00,75.7,71.9,28.73,ESE,112,0.0,0.0,88,0.00,CLR,,0.00,WeatherDisplay:10.37,2013-08-27 07:12:00,
2013-08-27 02:13:00,75.7,71.9,28.73,SSE,158,1.2,0.0,88,0.00,CLR,,0.00,WeatherDisplay:10.37,2013-08-27 07:13:00,
2013-08-27 02:14:00,75.7,71.9,28.73,SSW,202,1.2,0.0,88,0.00,CLR,,0.00,WeatherDisplay:10.37,2013-08-27 07:14:00,
2013-08-27 02:15:00,75.6,71.4,28.73,SSW,202,1.2,0.0,87,0.00,CLR,,0.00,WeatherDisplay:10.37,2013-08-27 07:15:00,
2013-08-27 02:16:00,75.6,71.4,28.73,SSW,202,0.0,0.0,87,0.00,CLR,,0.00,WeatherDisplay:10.37,2013-08-27 07:16:00,
2013-08-27 02:18:00,75.6,71.4,28.73,SSW,202,0.0,0.0,87,0.00,CLR,,0.00,WeatherDisplay:10.37,2013-08-27 07:18:00,
2013-08-27 02:19:00,75.6,71.4,28.73,SSE,158,2.9,2.9,87,0.00,CLR,,0.00,WeatherDisplay:10.37,2013-08-27 07:19:00,
2013-08-27 02:20:00,75.7,71.6,28.73,SSW,202,2.3,2.3,87,0.00,CLR,,0.00,WeatherDisplay:10.37,2013-08-27 07:20:00,
2013-08-27 02:21:00,75.7,71.6,28.73,WSW,248,1.2,1.2,87,0.00,CLR,,0.00,WeatherDisplay:10.37,2013-08-27 07:21:00,
2013-08-27 02:23:00,75.7,71.6,28.73,SW,225,1.2,0.0,87,0.00,CLR,,0.00,WeatherDisplay:10.37,2013-08-27 07:23:00,
2013-08-27 02:24:00,75.7,71.6,28.73,South,180,1.2,0.0,87,0.00,CLR,,0.00,WeatherDisplay:10.37,2013-08-27 07:24:00,
2013-08-27 02:25:00,75.7,71.6,28.73,WSW,248,2.3,2.3,87,0.00,CLR,,0.00,WeatherDisplay:10.37,2013-08-27 07:25:00,
2013-08-27 02:26:00,75.7,71.6,28.73,WSW,248,2.3,2.3,87,0.00,CLR,,0.00,WeatherDisplay:10.37,2013-08-27 07:26:00,
2013-08-27 02:29:00,76.1,71.6,28.73,WSW,248,3.5,3.5,86,0.00,CLR,,0.00,WeatherDisplay:10.37,2013-08-27 07:29:00,
2013-08-27 02:30:00,76.1,71.6,28.73,WSW,248,2.3,0.0,86,0.00,CLR,,0.00,WeatherDisplay:10.37,2013-08-27 07:30:00,
2013-08-27 02:31:00,76.1,71.6,28.73,SW,225,1.2,0.0,86,0.00,CLR,,0.00,WeatherDisplay:10.37,2013-08-27 07:31:00,
2013-08-27 02:34:00,75.9,71.4,28.73,West,270,1.2,1.2,86,0.00,CLR,,0.00,WeatherDisplay:10.37,2013-08-27 07:34:00,
2013-08-27 02:35:00,75.9,71.4,28.73,West,270,1.2,1.2,86,0.00,CLR,,0.00,WeatherDisplay:10.37,2013-08-27 07:35:00,
2013-08-27 02:36:00,76.1,71.6,28.73,West,270,2.3,0.0,86,0.00,CLR,,0.00,WeatherDisplay:10.37,2013-08-27 07:36:00,
2013-08-27 02:37:00,76.1,71.6,28.73,West,270,0.0,0.0,86,0.00,CLR,,0.00,WeatherDisplay:10.37,2013-08-27 07:37:00,
2013-08-27 02:39:00,75.9,71.1,28.73,ESE,112,1.2,1.2,85,0.00,CLR,,0.00,WeatherDisplay:10.37,2013-08-27 07:39:00,
2013-08-27 02:40:00,75.9,71.1,28.73,SSW,203,1.0,1.0,85,0.00,CLR,,0.00,WeatherDisplay:10.37,2013-08-27 07:40:00,
2013-08-27 02:41:00,75.9,71.1,28.73,WNW,292,0.0,0.0,85,0.00,CLR,,0.00,WeatherDisplay:10.37,2013-08-27 07:41:00,
2013-08-27 02:42:00,75.9,71.1,28.73,SSW,202,1.2,0.0,85,0.00,CLR,,0.00,WeatherDisplay:10.37,2013-08-27 07:42:00,
2013-08-27 02:44:00,76.1,71.3,28.73,West,270,2.3,2.3,85,0.00,CLR,,0.00,WeatherDisplay:10.37,2013-08-27 07:44:00,
2013-08-27 02:45:00,76.1,71.3,28.73,West,270,2.3,0.0,85,0.00,CLR,,0.00,WeatherDisplay:10.37,2013-08-27 07:45:00,
2013-08-27 02:46:00,76.1,71.3,28.73,NNW,338,1.2,0.0,85,0.00,CLR,,0.00,WeatherDisplay:10.37,2013-08-27 07:46:00,
2013-08-27 02:47:00,76.3,71.4,28.73,SSW,202,2.4,2.4,85,0.00,CLR,,0.00,WeatherDisplay:10.37,2013-08-27 07:47:00,
2013-08-27 02:49:00,76.5,71.3,28.73,SSW,202,2.3,2.3,84,0.00,CLR,,0.00,WeatherDisplay:10.37,2013-08-27 07:49:00,
2013-08-27 02:50:00,76.6,71.4,28.73,NW,315,2.3,2.3,84,0.00,CLR,,0.00,WeatherDisplay:10.37,2013-08-27 07:50:00,
2013-08-27 02:51:00,76.6,71.4,28.73,WSW,248,3.5,3.5,84,0.00,CLR,,0.00,WeatherDisplay:10.37,2013-08-27 07:51:00,
2013-08-27 02:52:00,76.8,71.3,28.73,WSW,248,2.3,2.3,83,0.00,CLR,,0.00,WeatherDisplay:10.37,2013-08-27 07:52:00,
2013-08-27 02:55:00,77.0,71.1,28.70,North,0,3.5,3.5,82,0.00,CLR,,0.00,WeatherDisplay:10.37,2013-08-27 07:55:00,
2013-08-27 02:56:00,77.0,71.1,28.70,WSW,248,2.4,2.4,82,0.00,CLR,,0.00,WeatherDisplay:10.37,2013-08-27 07:56:00,
2013-08-27 02:58:00,77.0,71.1,28.70,West,270,2.9,2.9,82,0.00,CLR,,0.00,WeatherDisplay:10.37,2013-08-27 07:58:00,
2013-08-27 03:00:00,77.2,70.9,28.70,WNW,292,4.3,4.3,81,0.00,CLR,,0.00,WeatherDisplay:10.37,2013-08-27 08:00:00,
2013-08-27 03:01:00,77.2,70.9,28.70,SSW,202,4.6,4.6,81,0.00,CLR,,0.00,WeatherDisplay:10.37,2013-08-27 08:01:00,
2013-08-27 03:03:00,77.2,70.5,28.70,South,180,3.5,3.5,80,0.00,CLR,,0.00,WeatherDisplay:10.37,2013-08-27 08:03:00,
2013-08-27 03:05:00,77.2,70.5,28.70,SW,225,3.5,3.5,80,0.00,CLR,,0.00,WeatherDisplay:10.37,2013-08-27 08:05:00,
2013-08-27 03:06:00,77.2,70.5,28.70,WSW,248,3.5,3.5,80,0.00,CLR,,0.00,WeatherDisplay:10.37,2013-08-27 08:06:00,
2013-08-27 03:08:00,77.2,70.5,28.70,WSW,248,3.1,3.1,80,0.00,CLR,,0.00,WeatherDisplay:10.37,2013-08-27 08:08:00,
2013-08-27 03:10:00,77.2,70.5,28.70,WSW,248,3.5,3.5,80,0.00,CLR,,0.00,WeatherDisplay:10.37,2013-08-27 08:10:00,
2013-08-27 03:11:00,77.4,70.3,28.70,WSW,248,4.6,4.6,79,0.00,CLR,,0.00,WeatherDisplay:10.37,2013-08-27 08:11:00,
2013-08-27 03:13:00,77.4,70.7,28.70,SSW,202,2.3,0.0,80,0.00,CLR,,0.00,WeatherDisplay:10.37,2013-08-27 08:13:00,
2013-08-27 03:15:00,77.4,70.3,28.70,West,270,2.3,2.3,79,0.00,CLR,,0.00,WeatherDisplay:10.37,2013-08-27 08:15:00,
2013-08-27 03:16:00,77.4,70.3,28.70,West,270,3.5,3.5,79,0.00,CLR,,0.00,WeatherDisplay:10.37,2013-08-27 08:16:00,
2013-08-27 03:18:00,77.2,70.2,28.70,West,270,2.0,0.0,79,0.00,CLR,,0.00,WeatherDisplay:10.37,2013-08-27 08:18:00,
2013-08-27 03:20:00,77.2,70.2,28.70,SSE,158,3.5,3.5,79,0.00,CLR,,0.00,WeatherDisplay:10.37,2013-08-27 08:20:00,
2013-08-27 03:21:00,77.2,70.2,28.70,SSW,202,3.5,3.5,79,0.00,CLR,,0.00,WeatherDisplay:10.37,2013-08-27 08:21:00,
2013-08-27 03:22:00,77.2,70.2,28.70,SW,225,2.3,2.3,79,0.00,CLR,,0.00,WeatherDisplay:10.37,2013-08-27 08:22:00,
2013-08-27 03:23:00,77.2,70.2,28.70,SW,225,2.3,2.3,79,0.00,CLR,,0.00,WeatherDisplay:10.37,2013-08-27 08:23:00,
2013-08-27 03:25:00,77.2,70.2,28.73,WSW,248,1.2,1.2,79,0.00,CLR,,0.00,WeatherDisplay:10.37,2013-08-27 08:25:00,
2013-08-27 03:26:00,77.2,70.2,28.73,West,270,2.3,2.3,79,0.00,CLR,,0.00,WeatherDisplay:10.37,2013-08-27 08:26:00,
2013-08-27 03:27:00,77.0,70.0,28.73,SSW,202,2.3,0.0,79,0.00,CLR,,0.00,WeatherDisplay:10.37,2013-08-27 08:27:00,
2013-08-27 03:29:00,77.0,70.0,28.73,SSW,202,3.5,3.5,79,0.00,CLR,,0.00,WeatherDisplay:10.37,2013-08-27 08:29:00,
2013-08-27 03:30:00,77.0,70.0,28.73,WSW,248,2.6,2.6,79,0.00,CLR,,0.00,WeatherDisplay:10.37,2013-08-27 08:30:00,
2013-08-27 03:31:00,77.0,70.0,28.73,SSW,202,3.5,3.5,79,0.00,CLR,,0.00,WeatherDisplay:10.37,2013-08-27 08:31:00,
2013-08-27 03:32:00,77.0,70.0,28.73,SW,225,3.5,3.5,79,0.00,CLR,,0.00,WeatherDisplay:10.37,2013-08-27 08:32:00,
2013-08-27 03:34:00,77.0,70.0,28.73,SSW,202,2.3,2.3,79,0.00,CLR,,0.00,WeatherDisplay:10.37,2013-08-27 08:34:00,
2013-08-27 03:35:00,77.0,70.0,28.73,WSW,248,2.3,2.3,79,0.00,CLR,,0.00,WeatherDisplay:10.37,2013-08-27 08:35:00,
2013-08-27 03:36:00,77.0,70.0,28.73,WSW,248,2.3,2.3,79,0.00,CLR,,0.00,WeatherDisplay:10.37,2013-08-27 08:36:00,
2013-08-27 03:37:00,77.0,70.0,28.73,SW,225,2.3,2.3,79,0.00,CLR,,0.00,WeatherDisplay:10.37,2013-08-27 08:37:00,
2013-08-27 03:39:00,76.8,70.2,28.73,North,0,3.5,3.5,80,0.00,CLR,,0.00,WeatherDisplay:10.37,2013-08-27 08:39:00,
2013-08-27 03:41:00,76.8,70.2,28.73,SSW,202,1.2,0.0,80,0.00,CLR,,0.00,WeatherDisplay:10.37,2013-08-27 08:41:00,
2013-08-27 03:42:00,76.8,70.2,28.73,SSW,202,2.3,2.3,80,0.00,CLR,,0.00,WeatherDisplay:10.37,2013-08-27 08:42:00,
2013-08-27 03:44:00,76.8,70.2,28.73,NW,315,3.5,3.5,80,0.00,CLR,,0.00,WeatherDisplay:10.37,2013-08-27 08:44:00,
2013-08-27 03:46:00,76.8,70.2,28.73,South,180,2.3,2.3,80,0.00,CLR,,0.00,WeatherDisplay:10.37,2013-08-27 08:46:00,
2013-08-27 03:47:00,76.8,70.2,28.73,WSW,248,1.6,1.6,80,0.00,CLR,,0.00,WeatherDisplay:10.37,2013-08-27 08:47:00,
2013-08-27 03:50:00,76.6,70.0,28.73,SSW,202,1.2,0.0,80,0.00,CLR,,0.00,WeatherDisplay:10.37,2013-08-27 08:50:00,
2013-08-27 03:51:00,76.6,70.0,28.73,WSW,248,4.6,4.6,80,0.00,CLR,,0.00,WeatherDisplay:10.37,2013-08-27 08:51:00,
2013-08-27 03:52:00,76.6,70.0,28.73,SSW,202,4.6,4.6,80,0.00,CLR,,0.00,WeatherDisplay:10.37,2013-08-27 08:52:00,
2013-08-27 03:55:00,76.5,69.8,28.73,WSW,248,1.2,0.0,80,0.00,CLR,,0.00,WeatherDisplay:10.37,2013-08-27 08:55:00,
2013-08-27 03:56:00,76.5,69.8,28.73,WSW,248,1.2,1.2,80,0.00,CLR,,0.00,WeatherDisplay:10.37,2013-08-27 08:56:00,
2013-08-27 03:57:00,76.5,69.8,28.73,SW,225,1.2,0.0,80,0.00,CLR,,0.00,WeatherDisplay:10.37,2013-08-27 08:57:00,
2013-08-27 04:00:00,76.3,69.7,28.73,West,270,2.3,2.3,80,0.00,CLR,,0.00,WeatherDisplay:10.37,2013-08-27 09:00:00,
2013-08-27 04:01:00,76.3,69.7,28.73,SSW,202,1.4,0.0,80,0.00,CLR,,0.00,WeatherDisplay:10.37,2013-08-27 09:01:00,
2013-08-27 04:02:00,76.3,69.7,28.73,SW,225,2.6,2.6,80,0.00,CLR,,0.00,WeatherDisplay:10.37,2013-08-27 09:02:00,
2013-08-27 04:03:00,76.3,69.7,28.73,SW,225,2.3,2.3,80,0.00,CLR,,0.00,WeatherDisplay:10.37,2013-08-27 09:03:00,
2013-08-27 04:05:00,76.5,69.8,28.73,SW,225,4.6,4.6,80,0.00,CLR,,0.00,WeatherDisplay:10.37,2013-08-27 09:05:00,
2013-08-27 04:06:00,76.5,69.8,28.73,WSW,248,2.3,2.3,80,0.00,CLR,,0.00,WeatherDisplay:10.37,2013-08-27 09:06:00,
2013-08-27 04:07:00,76.5,69.8,28.73,NW,315,0.9,0.0,80,0.00,CLR,,0.00,WeatherDisplay:10.37,2013-08-27 09:07:00,
2013-08-27 04:08:00,76.5,69.8,28.73,NW,315,1.2,0.0,80,0.00,CLR,,0.00,WeatherDisplay:10.37,2013-08-27 09:08:00,
2013-08-27 04:10:00,76.3,69.7,28.70,NW,315,2.0,2.0,80,0.00,CLR,,0.00,WeatherDisplay:10.37,2013-08-27 09:10:00,
2013-08-27 04:11:00,76.3,69.7,28.70,NW,315,2.3,2.3,80,0.00,CLR,,0.00,WeatherDisplay:10.37,2013-08-27 09:11:00,
2013-08-27 04:12:00,76.3,69.7,28.70,SW,225,1.2,0.0,80,0.00,CLR,,0.00,WeatherDisplay:10.37,2013-08-27 09:12:00,
2013-08-27 04:13:00,76.3,69.7,28.70,SW,225,1.2,1.2,80,0.00,CLR,,0.00,WeatherDisplay:10.37,2013-08-27 09:13:00,
2013-08-27 04:15:00,76.3,69.7,28.70,SW,225,0.0,0.0,80,0.00,CLR,,0.00,WeatherDisplay:10.37,2013-08-27 09:15:00,
2013-08-27 04:17:00,76.3,69.7,28.70,WSW,248,3.5,3.5,80,0.00,CLR,,0.00,WeatherDisplay:10.37,2013-08-27 09:17:00,
2013-08-27 04:18:00,76.3,69.7,28.70,WSW,248,3.1,3.1,80,0.00,CLR,,0.00,WeatherDisplay:10.37,2013-08-27 09:18:00,
2013-08-27 04:21:00,76.3,69.7,28.70,South,180,3.5,3.5,80,0.00,CLR,,0.00,WeatherDisplay:10.37,2013-08-27 09:21:00,
2013-08-27 04:22:00,76.5,69.8,28.70,West,270,2.4,2.4,80,0.00,CLR,,0.00,WeatherDisplay:10.37,2013-08-27 09:22:00,
2013-08-27 04:23:00,76.5,69.8,28.70,SW,225,2.3,2.3,80,0.00,CLR,,0.00,WeatherDisplay:10.37,2013-08-27 09:23:00,
2013-08-27 04:26:00,76.3,69.7,28.73,WNW,292,1.2,1.2,80,0.00,CLR,,0.00,WeatherDisplay:10.37,2013-08-27 09:26:00,
2013-08-27 04:27:00,76.1,69.5,28.73,West,270,3.5,3.5,80,0.00,CLR,,0.00,WeatherDisplay:10.37,2013-08-27 09:27:00,
2013-08-27 04:28:00,76.1,69.5,28.73,WNW,292,2.3,2.3,80,0.00,CLR,,0.00,WeatherDisplay:10.37,2013-08-27 09:28:00,
2013-08-27 04:31:00,76.1,69.5,28.73,North,0,2.3,2.3,80,0.00,CLR,,0.00,WeatherDisplay:10.37,2013-08-27 09:31:00,
2013-08-27 04:33:00,75.9,69.3,28.73,North,0,0.0,0.0,80,0.00,CLR,,0.00,WeatherDisplay:10.37,2013-08-27 09:33:00,
2013-08-27 04:34:00,75.9,69.3,28.73,North,0,0.0,0.0,80,0.00,CLR,,0.00,WeatherDisplay:10.37,2013-08-27 09:34:00,
2013-08-27 04:36:00,75.9,69.3,28.73,North,0,0.0,0.0,80,0.00,CLR,,0.00,WeatherDisplay:10.37,2013-08-27 09:36:00,
2013-08-27 04:38:00,75.9,69.3,28.73,SW,225,1.2,0.0,80,0.00,CLR,,0.00,WeatherDisplay:10.37,2013-08-27 09:38:00,
2013-08-27 04:39:00,75.9,69.3,28.73,SSW,202,3.5,3.5,80,0.00,CLR,,0.00,WeatherDisplay:10.37,2013-08-27 09:39:00,
2013-08-27 04:41:00,75.9,69.3,28.73,West,270,3.3,3.3,80,0.00,CLR,,0.00,WeatherDisplay:10.37,2013-08-27 09:41:00,
2013-08-27 04:43:00,75.9,69.3,28.73,West,270,2.3,2.3,80,0.00,CLR,,0.00,WeatherDisplay:10.37,2013-08-27 09:43:00,
2013-08-27 04:44:00,76.1,69.5,28.73,WSW,248,3.8,3.8,80,0.00,CLR,,0.00,WeatherDisplay:10.37,2013-08-27 09:44:00,
2013-08-27 04:47:00,76.3,69.7,28.73,West,270,4.6,4.6,80,0.00,CLR,,0.00,WeatherDisplay:10.37,2013-08-27 09:47:00,
2013-08-27 04:48:00,76.3,69.7,28.73,SW,225,4.6,4.6,80,0.00,CLR,,0.00,WeatherDisplay:10.37,2013-08-27 09:48:00,
2013-08-27 04:49:00,76.5,69.8,28.73,West,270,4.6,4.6,80,0.00,CLR,,0.00,WeatherDisplay:10.37,2013-08-27 09:49:00,
2013-08-27 04:52:00,76.5,69.8,28.73,SSW,202,5.8,5.8,80,0.00,CLR,,0.00,WeatherDisplay:10.37,2013-08-27 09:52:00,
2013-08-27 04:53:00,76.6,69.6,28.73,WSW,248,5.8,5.8,79,0.00,CLR,,0.00,WeatherDisplay:10.37,2013-08-27 09:53:00,
2013-08-27 04:54:00,76.8,69.8,28.73,WSW,248,6.2,6.2,79,0.00,CLR,,0.00,WeatherDisplay:10.37,2013-08-27 09:54:00,
2013-08-27 04:55:00,76.8,69.8,28.73,SSW,202,5.8,5.8,79,0.00,CLR,,0.00,WeatherDisplay:10.37,2013-08-27 09:55:00,
2013-08-27 04:58:00,77.0,69.6,28.73,West,270,5.8,5.8,78,0.00,CLR,,0.00,WeatherDisplay:10.37,2013-08-27 09:58:00,
2013-08-27 04:59:00,77.0,69.6,28.73,West,270,5.8,5.8,78,0.00,CLR,,0.00,WeatherDisplay:10.37,2013-08-27 09:59:00,
2013-08-27 05:00:00,77.2,69.8,28.73,WNW,292,4.6,4.6,78,0.00,CLR,,0.00,WeatherDisplay:10.37,2013-08-27 10:00:00,
2013-08-27 05:04:00,77.2,69.4,28.73,WSW,248,3.5,3.5,77,0.00,CLR,,0.00,WeatherDisplay:10.37,2013-08-27 10:04:00,
2013-08-27 05:05:00,77.2,69.4,28.73,WNW,292,4.6,4.6,77,0.00,CLR,,0.00,WeatherDisplay:10.37,2013-08-27 10:05:00,
2013-08-27 05:09:00,77.2,69.4,28.73,WSW,248,5.8,5.8,77,0.00,CLR,,0.00,WeatherDisplay:10.37,2013-08-27 10:09:00,
2013-08-27 05:10:00,77.2,69.4,28.73,SE,135,4.6,4.6,77,0.00,CLR,,0.00,WeatherDisplay:10.37,2013-08-27 10:10:00,
2013-08-27 05:11:00,77.2,69.4,28.73,SW,225,5.8,5.8,77,0.00,CLR,,0.00,WeatherDisplay:10.37,2013-08-27 10:11:00,
2013-08-27 05:14:00,77.2,69.0,28.73,SW,225,4.6,4.6,76,0.00,CLR,,0.00,WeatherDisplay:10.37,2013-08-27 10:14:00,
2013-08-27 05:15:00,77.4,69.2,28.73,SW,225,4.5,4.5,76,0.00,CLR,,0.00,WeatherDisplay:10.37,2013-08-27 10:15:00,
2013-08-27 05:17:00,77.4,69.2,28.73,West,270,4.6,4.6,76,0.00,CLR,,0.00,WeatherDisplay:10.37,2013-08-27 10:17:00,
2013-08-27 05:19:00,77.2,69.0,28.73,SSE,158,5.8,5.8,76,0.00,CLR,,0.00,WeatherDisplay:10.37,2013-08-27 10:19:00,
2013-08-27 05:20:00,77.2,69.0,28.73,WNW,292,5.8,5.8,76,0.00,CLR,,0.00,WeatherDisplay:10.37,2013-08-27 10:20:00,
2013-08-27 05:22:00,77.0,68.9,28.73,West,270,4.9,4.9,76,0.00,CLR,,0.00,WeatherDisplay:10.37,2013-08-27 10:22:00,
2013-08-27 05:24:00,77.0,68.9,28.73,WSW,248,3.6,3.6,76,0.00,CLR,,0.00,WeatherDisplay:10.37,2013-08-27 10:24:00,
2013-08-27 05:25:00,77.0,68.9,28.70,WNW,292,8.1,8.1,76,0.00,CLR,,0.00,WeatherDisplay:10.37,2013-08-27 10:25:00,
2013-08-27 05:26:00,77.0,68.9,28.70,WNW,292,4.6,4.6,76,0.00,CLR,,0.00,WeatherDisplay:10.37,2013-08-27 10:26:00,
2013-08-27 05:27:00,77.0,68.9,28.70,SW,225,3.5,3.5,76,0.00,CLR,,0.00,WeatherDisplay:10.37,2013-08-27 10:27:00,
2013-08-27 05:29:00,77.0,68.9,28.70,WSW,248,4.6,4.6,76,0.00,CLR,,0.00,WeatherDisplay:10.37,2013-08-27 10:29:00,
2013-08-27 05:30:00,77.0,68.9,28.70,South,180,4.0,4.0,76,0.00,CLR,,0.00,WeatherDisplay:10.37,2013-08-27 10:30:00,
2013-08-27 05:31:00,76.8,69.1,28.70,SSW,202,6.9,6.9,77,0.00,CLR,,0.00,WeatherDisplay:10.37,2013-08-27 10:31:00,
2013-08-27 05:32:00,76.8,69.1,28.70,West,270,3.8,3.8,77,0.00,CLR,,0.00,WeatherDisplay:10.37,2013-08-27 10:32:00,
2013-08-27 05:34:00,76.8,69.1,28.70,WSW,248,3.5,3.5,77,0.00,CLR,,0.00,WeatherDisplay:10.37,2013-08-27 10:34:00,
2013-08-27 05:35:00,76.8,69.1,28.70,ESE,112,2.9,2.9,77,0.00,CLR,,0.00,WeatherDisplay:10.37,2013-08-27 10:35:00,
2013-08-27 05:36:00,76.8,69.1,28.70,WSW,248,3.6,3.6,77,0.00,CLR,,0.00,WeatherDisplay:10.37,2013-08-27 10:36:00,
2013-08-27 05:37:00,76.8,69.1,28.70,SSE,158,3.5,3.5,77,0.00,CLR,,0.00,WeatherDisplay:10.37,2013-08-27 10:37:00,
2013-08-27 05:39:00,76.8,69.1,28.70,WSW,248,4.6,4.6,77,0.00,CLR,,0.00,WeatherDisplay:10.37,2013-08-27 10:39:00,
2013-08-27 05:40:00,76.8,69.1,28.70,West,270,3.5,3.5,77,0.00,CLR,,0.00,WeatherDisplay:10.37,2013-08-27 10:40:00,
2013-08-27 05:42:00,76.8,69.1,28.70,South,180,2.3,2.4,77,0.00,CLR,,0.00,WeatherDisplay:10.37,2013-08-27 10:42:00,
2013-08-27 05:43:00,76.8,69.1,28.70,West,270,5.8,5.8,77,0.00,CLR,,0.00,WeatherDisplay:10.37,2013-08-27 10:43:00,
2013-08-27 05:44:00,76.8,69.1,28.70,SSW,202,5.8,5.8,77,0.00,CLR,,0.00,WeatherDisplay:10.37,2013-08-27 10:44:00,
2013-08-27 05:45:00,76.8,69.1,28.70,SW,225,3.5,3.5,77,0.00,CLR,,0.00,WeatherDisplay:10.37,2013-08-27 10:45:00,
2013-08-27 05:47:00,76.8,69.1,28.70,SSW,202,2.3,2.3,77,0.00,CLR,,0.00,WeatherDisplay:10.37,2013-08-27 10:47:00,
2013-08-27 05:48:00,76.8,69.1,28.70,WNW,292,6.2,6.2,77,0.00,CLR,,0.00,WeatherDisplay:10.37,2013-08-27 10:48:00,
2013-08-27 05:49:00,76.6,68.9,28.70,SSW,202,5.8,5.8,77,0.00,CLR,,0.00,WeatherDisplay:10.37,2013-08-27 10:49:00,
2013-08-27 05:50:00,76.6,68.9,28.70,SSE,158,4.6,4.6,77,0.00,CLR,,0.00,WeatherDisplay:10.37,2013-08-27 10:50:00,
2013-08-27 05:52:00,76.6,68.9,28.70,SSE,158,2.3,2.3,77,0.00,CLR,,0.00,WeatherDisplay:10.37,2013-08-27 10:52:00,
2013-08-27 05:53:00,76.6,68.9,28.70,South,180,2.0,2.0,77,0.00,CLR,,0.00,WeatherDisplay:10.37,2013-08-27 10:53:00,
2013-08-27 05:54:00,76.6,68.9,28.70,SW,223,2.0,5.0,77,0.00,CLR,,0.00,WeatherDisplay:10.37,2013-08-27 10:54:00,
2013-08-27 05:55:00,76.6,68.9,28.70,SSW,202,4.6,4.6,77,0.00,CLR,,0.00,WeatherDisplay:10.37,2013-08-27 10:55:00,
2013-08-27 05:56:00,76.6,68.9,28.70,SSW,202,4.6,4.6,77,0.00,CLR,,0.00,WeatherDisplay:10.37,2013-08-27 10:56:00,
2013-08-27 05:57:00,76.6,68.9,28.70,West,270,4.6,4.6,77,0.00,CLR,,0.00,WeatherDisplay:10.37,2013-08-27 10:57:00,
2013-08-27 05:59:00,76.6,68.9,28.70,SE,135,4.6,4.6,77,0.00,CLR,,0.00,WeatherDisplay:10.37,2013-08-27 10:59:00,
2013-08-27 06:01:00,76.6,68.9,28.70,SW,225,3.5,3.5,77,0.00,CLR,,0.00,WeatherDisplay:10.37,2013-08-27 11:01:00,
2013-08-27 06:02:00,76.6,68.9,28.70,SW,225,2.9,2.9,77,0.00,CLR,,0.00,WeatherDisplay:10.37,2013-08-27 11:02:00,
2013-08-27 06:04:00,76.6,68.9,28.70,SW,225,3.5,3.5,77,0.00,CLR,,0.00,WeatherDisplay:10.37,2013-08-27 11:04:00,
2013-08-27 06:05:00,76.6,68.9,28.70,WSW,248,3.5,3.5,77,0.00,CLR,,0.00,WeatherDisplay:10.37,2013-08-27 11:05:00,
2013-08-27 06:06:00,76.6,68.9,28.70,West,270,4.6,4.6,77,0.00,CLR,,0.00,WeatherDisplay:10.37,2013-08-27 11:06:00,
2013-08-27 06:07:00,76.6,68.9,28.70,West,270,3.5,3.5,77,0.00,CLR,,0.00,WeatherDisplay:10.37,2013-08-27 11:07:00,
2013-08-27 06:09:00,76.6,68.9,28.70,WSW,248,2.3,2.3,77,0.00,CLR,,0.00,WeatherDisplay:10.37,2013-08-27 11:09:00,
2013-08-27 06:10:00,76.5,68.7,28.70,West,270,2.3,0.0,77,0.00,CLR,,0.00,WeatherDisplay:10.37,2013-08-27 11:10:00,
2013-08-27 06:11:00,76.5,68.7,28.70,SW,225,1.2,1.2,77,0.00,CLR,,0.00,WeatherDisplay:10.37,2013-08-27 11:11:00,
2013-08-27 06:12:00,76.5,68.7,28.70,SW,225,1.2,1.2,77,0.00,CLR,,0.00,WeatherDisplay:10.37,2013-08-27 11:12:00,
2013-08-27 06:14:00,76.5,68.7,28.70,SSW,202,2.3,2.6,77,0.00,CLR,,0.00,WeatherDisplay:10.37,2013-08-27 11:14:00,
2013-08-27 06:15:00,76.5,68.7,28.70,SSW,202,4.6,4.6,77,0.00,CLR,,0.00,WeatherDisplay:10.37,2013-08-27 11:15:00,
2013-08-27 06:17:00,76.5,68.7,28.70,WNW,292,2.4,0.0,77,0.00,CLR,,0.00,WeatherDisplay:10.37,2013-08-27 11:17:00,
2013-08-27 06:19:00,76.3,68.5,28.70,South,180,2.3,2.3,77,0.00,CLR,,0.00,WeatherDisplay:10.37,2013-08-27 11:19:00,
2013-08-27 06:20:00,76.3,68.5,28.70,WSW,248,2.3,2.3,77,0.00,CLR,,0.00,WeatherDisplay:10.37,2013-08-27 11:20:00,
2013-08-27 06:22:00,76.3,68.5,28.70,WSW,248,2.3,2.3,77,0.00,CLR,,0.00,WeatherDisplay:10.37,2013-08-27 11:22:00,
2013-08-27 06:24:00,76.3,68.5,28.70,SW,225,4.6,4.6,77,0.00,CLR,,0.00,WeatherDisplay:10.37,2013-08-27 11:24:00,
2013-08-27 06:26:00,76.1,68.4,28.70,WSW,248,1.2,0.0,77,0.00,CLR,,0.00,WeatherDisplay:10.37,2013-08-27 11:26:00,
2013-08-27 06:27:00,76.1,68.4,28.70,SSW,202,2.3,2.3,77,0.00,CLR,,0.00,WeatherDisplay:10.37,2013-08-27 11:27:00,
2013-08-27 06:28:00,76.1,68.4,28.70,SSW,202,2.3,2.3,77,0.00,CLR,,0.00,WeatherDisplay:10.37,2013-08-27 11:28:00,
2013-08-27 06:29:00,76.1,68.4,28.70,SSE,158,1.2,0.0,77,0.00,CLR,,0.00,WeatherDisplay:10.37,2013-08-27 11:29:00,
2013-08-27 06:31:00,76.1,68.4,28.70,SSW,202,2.3,2.3,77,0.00,CLR,,0.00,WeatherDisplay:10.37,2013-08-27 11:31:00,
2013-08-27 06:32:00,75.9,68.2,28.70,South,180,1.2,0.0,77,0.00,CLR,,0.00,WeatherDisplay:10.37,2013-08-27 11:32:00,
2013-08-27 06:33:00,75.9,68.6,28.70,SSW,202,1.2,0.0,78,0.00,CLR,,0.00,WeatherDisplay:10.37,2013-08-27 11:33:00,
2013-08-27 06:34:00,75.9,68.6,28.70,WSW,248,1.2,0.0,78,0.00,CLR,,0.00,WeatherDisplay:10.37,2013-08-27 11:34:00,
2013-08-27 06:36:00,75.9,68.6,28.70,NW,315,1.2,1.2,78,0.00,CLR,,0.00,WeatherDisplay:10.37,2013-08-27 11:36:00,
2013-08-27 06:37:00,75.9,68.6,28.70,WSW,248,1.6,0.0,78,0.00,CLR,,0.00,WeatherDisplay:10.37,2013-08-27 11:37:00,
2013-08-27 06:38:00,75.9,68.6,28.70,South,180,2.3,2.3,78,0.00,CLR,,0.00,WeatherDisplay:10.37,2013-08-27 11:38:00,
2013-08-27 06:39:00,75.9,68.6,28.70,WNW,292,2.3,2.3,78,0.00,CLR,,0.00,WeatherDisplay:10.37,2013-08-27 11:39:00,
2013-08-27 06:40:00,75.9,68.6,28.70,North,0,2.3,2.3,78,0.00,CLR,,0.00,WeatherDisplay:10.37,2013-08-27 11:40:00,
2013-08-27 06:41:00,75.9,68.6,28.70,SW,225,3.1,3.1,78,0.00,CLR,,0.00,WeatherDisplay:10.37,2013-08-27 11:41:00,
2013-08-27 06:43:00,75.9,68.6,28.70,South,180,3.5,3.5,78,0.00,CLR,,0.00,WeatherDisplay:10.37,2013-08-27 11:43:00,
2013-08-27 06:44:00,75.9,68.6,28.70,SSW,202,3.5,3.5,78,0.00,CLR,,0.00,WeatherDisplay:10.37,2013-08-27 11:44:00,
2013-08-27 06:45:00,76.1,68.7,28.70,WSW,248,3.5,3.5,78,0.00,CLR,,0.00,WeatherDisplay:10.37,2013-08-27 11:45:00,
2013-08-27 06:47:00,76.1,68.7,28.70,SE,135,2.3,2.3,78,0.00,CLR,,0.00,WeatherDisplay:10.37,2013-08-27 11:47:00,
2013-08-27 06:48:00,76.1,68.7,28.70,SSW,202,2.3,2.3,78,0.00,CLR,,0.00,WeatherDisplay:10.37,2013-08-27 11:48:00,
2013-08-27 06:49:00,76.1,68.7,28.70,West,270,2.6,2.6,78,0.00,CLR,,0.00,WeatherDisplay:10.37,2013-08-27 11:49:00,
2013-08-27 06:50:00,76.1,68.7,28.70,South,180,5.4,5.4,78,0.00,CLR,,0.00,WeatherDisplay:10.37,2013-08-27 11:50:00,
2013-08-27 06:52:00,76.3,68.9,28.70,SW,225,3.6,3.6,78,0.00,CLR,,0.00,WeatherDisplay:10.37,2013-08-27 11:52:00,
2013-08-27 06:53:00,76.3,68.9,28.70,SW,225,3.5,3.5,78,0.00,CLR,,0.00,WeatherDisplay:10.37,2013-08-27 11:53:00,
2013-08-27 06:54:00,76.3,68.9,28.70,SW,225,2.3,2.3,78,0.00,CLR,,0.00,WeatherDisplay:10.37,2013-08-27 11:54:00,
2013-08-27 06:55:00,76.3,68.9,28.70,SSW,202,2.3,2.3,78,0.00,CLR,,0.00,WeatherDisplay:10.37,2013-08-27 11:55:00,
2013-08-27 06:57:00,76.3,68.9,28.70,SSE,158,2.3,2.3,78,0.00,CLR,,0.00,WeatherDisplay:10.37,2013-08-27 11:57:00,
2013-08-27 06:58:00,76.3,68.9,28.70,WSW,248,2.3,2.3,78,0.00,CLR,,0.00,WeatherDisplay:10.37,2013-08-27 11:58:00,
2013-08-27 06:59:00,76.3,68.9,28.70,SSW,202,2.3,2.3,78,0.00,CLR,,0.00,WeatherDisplay:10.37,2013-08-27 11:59:00,
2013-08-27 07:00:00,76.3,68.9,28.70,West,270,2.3,2.3,78,0.00,CLR,,0.00,WeatherDisplay:10.37,2013-08-27 12:00:00,
2013-08-27 07:02:00,76.3,68.9,28.70,SW,225,1.2,1.2,78,0.00,CLR,,0.00,WeatherDisplay:10.37,2013-08-27 12:02:00,
2013-08-27 07:03:00,76.3,68.9,28.70,SSW,202,1.2,0.0,78,0.00,CLR,,0.00,WeatherDisplay:10.37,2013-08-27 12:03:00,
2013-08-27 07:05:00,76.5,68.7,28.70,SW,225,2.3,2.3,77,0.00,CLR,,0.00,WeatherDisplay:10.37,2013-08-27 12:05:00,
2013-08-27 07:06:00,76.5,68.7,28.70,SW,225,3.8,3.8,77,0.00,CLR,,0.00,WeatherDisplay:10.37,2013-08-27 12:06:00,
2013-08-27 07:08:00,76.5,68.7,28.70,SW,225,2.3,2.3,77,0.00,CLR,,0.00,WeatherDisplay:10.37,2013-08-27 12:08:00,
2013-08-27 07:10:00,76.5,68.7,28.70,South,180,2.3,2.3,77,0.00,CLR,,0.00,WeatherDisplay:10.37,2013-08-27 12:10:00,
2013-08-27 07:12:00,76.6,68.9,28.70,SSW,202,2.3,2.3,77,0.00,CLR,,0.00,WeatherDisplay:10.37,2013-08-27 12:12:00,
2013-08-27 07:13:00,76.8,69.1,28.70,South,180,2.4,2.4,77,0.00,CLR,,0.00,WeatherDisplay:10.37,2013-08-27 12:13:00,
2013-08-27 07:15:00,76.8,69.1,28.70,SSW,202,1.6,1.6,77,0.00,CLR,,0.00,WeatherDisplay:10.37,2013-08-27 12:15:00,
2013-08-27 07:17:00,77.0,68.9,28.70,SSW,202,2.3,2.3,76,0.00,CLR,,0.00,WeatherDisplay:10.37,2013-08-27 12:17:00,
2013-08-27 07:18:00,77.0,68.9,28.70,SW,225,2.3,2.3,76,0.00,CLR,,0.00,WeatherDisplay:10.37,2013-08-27 12:18:00,
2013-08-27 07:19:00,77.0,68.9,28.70,WSW,248,1.2,1.2,76,0.00,CLR,,0.00,WeatherDisplay:10.37,2013-08-27 12:19:00,
2013-08-27 07:21:00,77.2,69.0,28.70,SSW,202,3.5,3.5,76,0.00,CLR,,0.00,WeatherDisplay:10.37,2013-08-27 12:21:00,
2013-08-27 07:22:00,77.2,69.0,28.70,South,180,2.6,2.6,76,0.00,CLR,,0.00,WeatherDisplay:10.37,2013-08-27 12:22:00,
2013-08-27 07:23:00,77.4,69.2,28.70,West,270,3.5,3.5,76,0.00,CLR,,0.00,WeatherDisplay:10.37,2013-08-27 12:23:00,
2013-08-27 07:24:00,77.4,69.2,28.70,SSW,202,3.5,3.5,76,0.00,CLR,,0.00,WeatherDisplay:10.37,2013-08-27 12:24:00,
2013-08-27 07:26:00,77.4,69.2,28.70,SSE,158,3.5,3.5,76,0.00,CLR,,0.00,WeatherDisplay:10.37,2013-08-27 12:26:00,
2013-08-27 07:27:00,77.4,69.2,28.70,WSW,248,2.3,2.3,76,0.00,CLR,,0.00,WeatherDisplay:10.37,2013-08-27 12:27:00,
2013-08-27 07:29:00,77.7,69.5,28.70,SW,225,2.3,2.3,76,0.00,CLR,,0.00,WeatherDisplay:10.37,2013-08-27 12:29:00,
2013-08-27 07:31:00,78.1,69.5,28.70,WSW,248,3.5,3.5,75,0.00,CLR,,0.00,WeatherDisplay:10.37,2013-08-27 12:31:00,
2013-08-27 07:33:00,78.1,69.5,28.70,SSW,202,3.5,3.5,75,0.00,CLR,,0.00,WeatherDisplay:10.37,2013-08-27 12:33:00,
2013-08-27 07:34:00,78.1,69.5,28.70,SSW,202,2.3,2.3,75,0.00,CLR,,0.00,WeatherDisplay:10.37,2013-08-27 12:34:00,
2013-08-27 07:36:00,78.4,69.5,28.70,SSW,202,2.3,2.3,74,0.00,CLR,,0.00,WeatherDisplay:10.37,2013-08-27 12:36:00,
2013-08-27 07:38:00,78.4,69.5,28.70,SW,225,2.3,2.3,74,0.00,CLR,,0.00,WeatherDisplay:10.37,2013-08-27 12:38:00,
2013-08-27 07:39:00,78.6,69.6,28.70,West,270,1.2,1.2,74,0.00,CLR,,0.00,WeatherDisplay:10.37,2013-08-27 12:39:00,
2013-08-27 07:40:00,78.8,69.8,28.67,SE,135,5.6,5.6,74,0.00,CLR,,0.00,WeatherDisplay:10.37,2013-08-27 12:40:00,
2013-08-27 07:42:00,79.0,69.2,28.67,South,180,2.3,2.3,72,0.00,CLR,,0.00,WeatherDisplay:10.37,2013-08-27 12:42:00,
2013-08-27 07:43:00,79.0,69.2,28.67,SSW,202,2.3,2.3,72,0.00,CLR,,0.00,WeatherDisplay:10.37,2013-08-27 12:43:00,
2013-08-27 07:44:00,79.0,69.2,28.67,SSW,202,4.6,4.6,72,0.00,CLR,,0.00,WeatherDisplay:10.37,2013-08-27 12:44:00,
2013-08-27 07:45:00,79.2,69.4,28.67,SSW,202,2.4,2.4,72,0.00,CLR,,0.00,WeatherDisplay:10.37,2013-08-27 12:45:00,
2013-08-27 07:47:00,79.2,69.4,28.67,SSW,202,3.5,3.5,72,0.00,CLR,,0.00,WeatherDisplay:10.37,2013-08-27 12:47:00,
2013-08-27 07:48:00,79.2,69.4,28.67,NNW,338,3.5,3.5,72,0.00,CLR,,0.00,WeatherDisplay:10.37,2013-08-27 12:48:00,
2013-08-27 07:49:00,79.9,69.6,28.67,WSW,248,2.4,0.0,71,0.00,CLR,,0.00,WeatherDisplay:10.37,2013-08-27 12:49:00,
2013-08-27 07:50:00,80.1,70.2,28.67,SSW,202,2.3,2.3,72,0.00,CLR,,0.00,WeatherDisplay:10.37,2013-08-27 12:50:00,
2013-08-27 07:52:00,80.6,69.9,28.67,SW,225,3.5,3.5,70,0.00,CLR,,0.00,WeatherDisplay:10.37,2013-08-27 12:52:00,
2013-08-27 07:53:00,80.8,69.7,28.67,SW,225,2.3,2.3,69,0.00,CLR,,0.00,WeatherDisplay:10.37,2013-08-27 12:53:00,
2013-08-27 07:54:00,80.8,69.7,28.70,SSE,158,4.6,4.6,69,0.00,CLR,,0.00,WeatherDisplay:10.37,2013-08-27 12:54:00,
2013-08-27 07:55:00,81.0,69.8,28.70,SSW,202,4.6,4.6,69,0.00,CLR,,0.00,WeatherDisplay:10.37,2013-08-27 12:55:00,
2013-08-27 07:58:00,81.1,70.0,28.70,WSW,248,3.5,3.5,69,0.00,CLR,,0.00,WeatherDisplay:10.37,2013-08-27 12:58:00,
2013-08-27 08:00:00,81.3,69.7,28.70,SSE,158,3.5,3.5,68,0.00,CLR,,0.00,WeatherDisplay:10.37,2013-08-27 13:00:00,
2013-08-27 08:03:00,81.5,69.5,28.70,WNW,292,3.5,3.5,67,0.00,CLR,,0.00,WeatherDisplay:10.37,2013-08-27 13:03:00,
2013-08-27 08:04:00,81.7,69.7,28.70,SSW,202,2.4,2.4,67,0.00,CLR,,0.00,WeatherDisplay:10.37,2013-08-27 13:04:00,
2013-08-27 08:05:00,81.7,69.7,28.70,WSW,245,1.0,5.0,67,0.00,CLR,,0.00,WeatherDisplay:10.37,2013-08-27 13:05:00,
2013-08-27 08:06:00,81.7,69.2,28.70,SSW,202,4.6,4.6,66,0.00,CLR,,0.00,WeatherDisplay:10.37,2013-08-27 13:06:00,
2013-08-27 08:08:00,81.9,69.4,28.70,WNW,292,3.5,3.5,66,0.00,CLR,,0.00,WeatherDisplay:10.37,2013-08-27 13:08:00,
2013-08-27 08:09:00,81.9,68.9,28.70,SSW,202,5.8,5.8,65,0.00,CLR,,0.00,WeatherDisplay:10.37,2013-08-27 13:09:00,
2013-08-27 08:11:00,82.0,69.6,28.70,WSW,248,2.3,2.3,66,0.00,CLR,,0.00,WeatherDisplay:10.37,2013-08-27 13:11:00,
2013-08-27 08:13:00,82.4,69.4,28.70,NW,315,3.1,3.1,65,0.00,CLR,,0.00,WeatherDisplay:10.37,2013-08-27 13:13:00,
2013-08-27 08:14:00,82.6,69.6,28.70,NNW,338,3.5,3.5,65,0.00,CLR,,0.00,WeatherDisplay:10.37,2013-08-27 13:14:00,
2013-08-27 08:15:00,82.6,70.1,28.70,SW,225,2.3,2.3,66,0.00,CLR,,0.00,WeatherDisplay:10.37,2013-08-27 13:15:00,
2013-08-27 08:16:00,82.6,70.1,28.70,SW,225,2.3,2.3,66,0.00,CLR,,0.00,WeatherDisplay:10.37,2013-08-27 13:16:00,
2013-08-27 08:18:00,82.6,69.2,28.70,South,180,4.6,4.6,64,0.00,CLR,,0.00,WeatherDisplay:10.37,2013-08-27 13:18:00,
2013-08-27 08:19:00,82.4,69.0,28.70,WSW,248,3.6,3.6,64,0.00,CLR,,0.00,WeatherDisplay:10.37,2013-08-27 13:19:00,
2013-08-27 08:21:00,82.4,69.0,28.70,SSW,202,2.3,2.3,64,0.00,CLR,,0.00,WeatherDisplay:10.37,2013-08-27 13:21:00,
2013-08-27 08:24:00,82.0,68.2,28.70,WNW,292,5.8,5.8,63,0.00,CLR,,0.00,WeatherDisplay:10.37,2013-08-27 13:24:00,
2013-08-27 08:26:00,82.0,68.7,28.70,West,270,2.6,2.6,64,0.00,CLR,,0.00,WeatherDisplay:10.37,2013-08-27 13:26:00,
2013-08-27 08:29:00,81.7,68.3,28.70,WSW,248,3.5,3.5,64,0.00,CLR,,0.00,WeatherDisplay:10.37,2013-08-27 13:29:00,
2013-08-27 08:30:00,81.7,68.3,28.70,WSW,248,2.3,2.3,64,0.00,CLR,,0.00,WeatherDisplay:10.37,2013-08-27 13:30:00,
2013-08-27 08:31:00,81.7,68.3,28.70,NW,315,3.1,3.1,64,0.00,CLR,,0.00,WeatherDisplay:10.37,2013-08-27 13:31:00,
2013-08-27 08:32:00,81.5,68.1,28.70,SW,225,3.5,3.5,64,0.00,CLR,,0.00,WeatherDisplay:10.37,2013-08-27 13:32:00,
2013-08-27 08:34:00,81.5,68.1,28.70,NW,315,5.8,5.8,64,0.00,CLR,,0.00,WeatherDisplay:10.37,2013-08-27 13:34:00,
2013-08-27 08:35:00,81.3,67.5,28.70,West,270,3.5,3.5,63,0.00,CLR,,0.00,WeatherDisplay:10.37,2013-08-27 13:35:00,
2013-08-27 08:36:00,81.3,68.0,28.70,SW,225,3.5,3.5,64,0.00,CLR,,0.00,WeatherDisplay:10.37,2013-08-27 13:36:00,
2013-08-27 08:37:00,81.3,68.0,28.70,WSW,248,3.5,3.5,64,0.00,CLR,,0.00,WeatherDisplay:10.37,2013-08-27 13:37:00,
2013-08-27 08:38:00,81.5,68.1,28.70,SSW,202,2.3,2.3,64,0.00,CLR,,0.00,WeatherDisplay:10.37,2013-08-27 13:38:00,
2013-08-27 08:39:00,81.5,68.1,28.70,West,270,8.1,8.1,64,0.00,CLR,,0.00,WeatherDisplay:10.37,2013-08-27 13:39:00,
2013-08-27 08:40:00,81.3,68.0,28.70,SE,135,8.1,8.1,64,0.00,CLR,,0.00,WeatherDisplay:10.37,2013-08-27 13:40:00,
2013-08-27 08:41:00,81.3,68.0,28.70,NW,315,2.9,2.9,64,0.00,CLR,,0.00,WeatherDisplay:10.37,2013-08-27 13:41:00,
2013-08-27 08:42:00,81.5,68.1,28.70,SW,225,2.3,2.4,64,0.00,CLR,,0.00,WeatherDisplay:10.37,2013-08-27 13:42:00,
2013-08-27 08:43:00,81.3,68.4,28.70,South,180,3.1,3.1,65,0.00,CLR,,0.00,WeatherDisplay:10.37,2013-08-27 13:43:00,
2013-08-27 08:44:00,81.5,68.1,28.70,WNW,292,3.5,3.5,64,0.00,CLR,,0.00,WeatherDisplay:10.37,2013-08-27 13:44:00,
2013-08-27 08:45:00,81.9,68.5,28.70,SSW,202,3.5,3.5,64,0.00,CLR,,0.00,WeatherDisplay:10.37,2013-08-27 13:45:00,
2013-08-27 08:46:00,81.9,68.5,28.70,NW,315,2.3,2.3,64,0.00,CLR,,0.00,WeatherDisplay:10.37,2013-08-27 13:46:00,
2013-08-27 08:47:00,82.2,68.8,28.70,WSW,248,2.3,2.3,64,0.00,CLR,,0.00,WeatherDisplay:10.37,2013-08-27 13:47:00,
2013-08-27 08:48:00,82.4,69.0,28.70,SSE,158,2.6,2.6,64,0.00,CLR,,0.00,WeatherDisplay:10.37,2013-08-27 13:48:00,
2013-08-27 08:50:00,82.8,69.3,28.70,NNE,22,3.5,3.5,64,0.00,CLR,,0.00,WeatherDisplay:10.37,2013-08-27 13:50:00,
2013-08-27 08:51:00,83.1,69.7,28.70,NNE,22,1.2,1.4,64,0.00,CLR,,0.00,WeatherDisplay:10.37,2013-08-27 13:51:00,
2013-08-27 08:52:00,83.3,69.8,28.70,WSW,248,2.3,2.3,64,0.00,CLR,,0.00,WeatherDisplay:10.37,2013-08-27 13:52:00,
2013-08-27 08:54:00,83.8,69.9,28.70,SSW,202,4.6,4.6,63,0.00,CLR,,0.00,WeatherDisplay:10.37,2013-08-27 13:54:00,
2013-08-27 08:56:00,84.0,68.6,28.67,West,270,3.5,3.5,60,0.00,CLR,,0.00,WeatherDisplay:10.37,2013-08-27 13:56:00,
2013-08-27 08:58:00,84.9,70.0,28.67,WNW,292,2.9,2.9,61,0.00,CLR,,0.00,WeatherDisplay:10.37,2013-08-27 13:58:00,
2013-08-27 08:59:00,85.1,70.1,28.67,NNW,338,3.6,3.6,61,0.00,CLR,,0.00,WeatherDisplay:10.37,2013-08-27 13:59:00,
2013-08-27 09:01:00,85.5,69.5,28.67,NW,315,3.5,3.5,59,0.00,CLR,,0.00,WeatherDisplay:10.37,2013-08-27 14:01:00,
2013-08-27 09:02:00,85.6,69.7,28.67,NE,45,2.4,2.4,59,0.00,CLR,,0.00,WeatherDisplay:10.37,2013-08-27 14:02:00,
2013-08-27 09:03:00,86.0,70.0,28.67,West,270,3.1,3.1,59,0.00,CLR,,0.00,WeatherDisplay:10.37,2013-08-27 14:03:00,
2013-08-27 09:04:00,86.2,69.7,28.67,West,270,4.6,4.6,58,0.00,CLR,,0.00,WeatherDisplay:10.37,2013-08-27 14:04:00,
2013-08-27 09:06:00,86.2,69.7,28.67,SSW,202,3.5,3.5,58,0.00,CLR,,0.00,WeatherDisplay:10.37,2013-08-27 14:06:00,
2013-08-27 09:07:00,86.7,69.7,28.67,WSW,248,2.6,2.6,57,0.00,CLR,,0.00,WeatherDisplay:10.37,2013-08-27 14:07:00,
2013-08-27 09:08:00,86.9,69.8,28.67,NW,315,6.2,6.2,57,0.00,CLR,,0.00,WeatherDisplay:10.37,2013-08-27 14:08:00,
2013-08-27 09:09:00,87.1,69.5,28.67,West,270,5.8,5.8,56,0.00,CLR,,0.00,WeatherDisplay:10.37,2013-08-27 14:09:00,
2013-08-27 09:11:00,87.4,70.3,28.67,NW,315,2.3,2.3,57,0.00,CLR,,0.00,WeatherDisplay:10.37,2013-08-27 14:11:00,
2013-08-27 09:12:00,87.4,70.3,28.67,SW,225,1.2,1.6,57,0.00,CLR,,0.00,WeatherDisplay:10.37,2013-08-27 14:12:00,
2013-08-27 09:13:00,87.6,69.5,28.67,SW,225,2.3,2.3,55,0.00,CLR,,0.00,WeatherDisplay:10.37,2013-08-27 14:13:00,
2013-08-27 09:15:00,87.4,68.8,28.67,WSW,248,5.8,5.8,54,0.00,CLR,,0.00,WeatherDisplay:10.37,2013-08-27 14:15:00,
2013-08-27 09:16:00,87.6,69.5,28.67,WSW,248,4.6,4.6,55,0.00,CLR,,0.00,WeatherDisplay:10.37,2013-08-27 14:16:00,
2013-08-27 09:17:00,87.6,68.9,28.67,South,180,3.5,3.5,54,0.00,CLR,,0.00,WeatherDisplay:10.37,2013-08-27 14:17:00,
2013-08-27 09:18:00,88.2,68.9,28.67,West,270,5.4,5.4,53,0.00,CLR,,0.00,WeatherDisplay:10.37,2013-08-27 14:18:00,
2013-08-27 09:20:00,87.6,68.4,28.67,SSW,202,5.8,5.8,53,0.00,CLR,,0.00,WeatherDisplay:10.37,2013-08-27 14:20:00,
2013-08-27 09:21:00,87.4,68.8,28.67,NE,45,5.8,5.8,54,0.00,CLR,,0.00,WeatherDisplay:10.37,2013-08-27 14:21:00,
2013-08-27 09:22:00,87.4,68.8,28.67,South,180,2.4,2.4,54,0.00,CLR,,0.00,WeatherDisplay:10.37,2013-08-27 14:22:00,
2013-08-27 09:23:00,87.3,67.5,28.67,WNW,292,5.9,5.9,52,0.00,CLR,,0.00,WeatherDisplay:10.37,2013-08-27 14:23:00,
2013-08-27 09:25:00,87.1,67.3,28.64,WSW,248,8.1,8.1,52,0.00,CLR,,0.00,WeatherDisplay:10.37,2013-08-27 14:25:00,
2013-08-27 09:26:00,87.4,67.7,28.64,South,180,8.1,8.1,52,0.00,CLR,,0.00,WeatherDisplay:10.37,2013-08-27 14:26:00,
2013-08-27 09:27:00,87.4,67.7,28.64,SW,225,8.1,8.1,52,0.00,CLR,,0.00,WeatherDisplay:10.37,2013-08-27 14:27:00,
2013-08-27 09:28:00,87.6,67.8,28.64,SSW,202,4.6,4.6,52,0.00,CLR,,0.00,WeatherDisplay:10.37,2013-08-27 14:28:00,
2013-08-27 09:29:00,87.6,67.8,28.64,SSW,202,6.0,6.0,52,0.00,CLR,,0.00,WeatherDisplay:10.37,2013-08-27 14:29:00,
2013-08-27 09:30:00,87.3,66.9,28.64,SSW,202,8.1,8.1,51,0.00,CLR,,0.00,WeatherDisplay:10.37,2013-08-27 14:30:00,
2013-08-27 09:31:00,87.3,66.9,28.64,WSW,248,8.1,8.1,51,0.00,CLR,,0.00,WeatherDisplay:10.37,2013-08-27 14:31:00,
2013-08-27 09:32:00,87.4,67.7,28.64,SSE,158,5.8,5.8,52,0.00,CLR,,0.00,WeatherDisplay:10.37,2013-08-27 14:32:00,
2013-08-27 09:33:00,87.4,67.7,28.64,WNW,292,8.1,8.1,52,0.00,CLR,,0.00,WeatherDisplay:10.37,2013-08-27 14:33:00,
2013-08-27 09:34:00,87.3,66.9,28.64,North,0,8.1,8.1,51,0.00,CLR,,0.00,WeatherDisplay:10.37,2013-08-27 14:34:00,
2013-08-27 09:36:00,87.1,66.8,28.64,SSW,202,6.2,6.2,51,0.00,CLR,,0.00,WeatherDisplay:10.37,2013-08-27 14:36:00,
2013-08-27 09:37:00,86.7,66.4,28.64,NW,315,5.8,5.8,51,0.00,CLR,,0.00,WeatherDisplay:10.37,2013-08-27 14:37:00,
2013-08-27 09:38:00,86.5,66.8,28.64,SSW,202,6.9,6.9,52,0.00,CLR,,0.00,WeatherDisplay:10.37,2013-08-27 14:38:00,
2013-08-27 09:39:00,86.5,66.8,28.64,WSW,248,5.8,5.8,52,0.00,CLR,,0.00,WeatherDisplay:10.37,2013-08-27 14:39:00,
2013-08-27 09:41:00,86.0,66.3,28.67,SW,225,4.6,4.6,52,0.00,CLR,,0.00,WeatherDisplay:10.37,2013-08-27 14:41:00,
2013-08-27 09:42:00,86.2,67.0,28.67,WSW,248,9.2,9.2,53,0.00,CLR,,0.00,WeatherDisplay:10.37,2013-08-27 14:42:00,
2013-08-27 09:43:00,85.8,66.2,28.67,SW,225,4.6,4.9,52,0.00,CLR,,0.00,WeatherDisplay:10.37,2013-08-27 14:43:00,
2013-08-27 09:44:00,85.6,66.5,28.67,SW,225,7.8,7.8,53,0.00,CLR,,0.00,WeatherDisplay:10.37,2013-08-27 14:44:00,
2013-08-27 09:46:00,85.8,67.3,28.67,SSW,202,10.4,10.4,54,0.00,CLR,,0.00,WeatherDisplay:10.37,2013-08-27 14:46:00,
2013-08-27 09:47:00,85.8,67.3,28.67,North,0,4.6,5.9,54,0.00,CLR,,0.00,WeatherDisplay:10.37,2013-08-27 14:47:00,
2013-08-27 09:49:00,85.6,67.1,28.67,WNW,292,4.6,4.6,54,0.00,CLR,,0.00,WeatherDisplay:10.37,2013-08-27 14:49:00,
2013-08-27 09:51:00,86.2,67.0,28.67,SSW,202,8.1,8.1,53,0.00,CLR,,0.00,WeatherDisplay:10.37,2013-08-27 14:51:00,
2013-08-27 09:52:00,86.4,67.2,28.67,WNW,292,10.4,10.4,53,0.00,CLR,,0.00,WeatherDisplay:10.37,2013-08-27 14:52:00,
2013-08-27 09:53:00,86.9,67.7,28.67,West,270,4.6,4.6,53,0.00,CLR,,0.00,WeatherDisplay:10.37,2013-08-27 14:53:00,
2013-08-27 09:54:00,86.9,67.7,28.67,West,270,5.9,5.9,53,0.00,CLR,,0.00,WeatherDisplay:10.37,2013-08-27 14:54:00,
2013-08-27 09:57:00,87.6,68.4,28.64,West,270,8.1,8.1,53,0.00,CLR,,0.00,WeatherDisplay:10.37,2013-08-27 14:57:00,
2013-08-27 09:58:00,87.6,67.8,28.64,WSW,248,6.2,6.2,52,0.00,CLR,,0.00,WeatherDisplay:10.37,2013-08-27 14:58:00,
2013-08-27 09:59:00,87.1,66.8,28.64,WSW,248,5.8,5.8,51,0.00,CLR,,0.00,WeatherDisplay:10.37,2013-08-27 14:59:00,
2013-08-27 10:00:00,87.6,67.8,28.64,SSW,202,4.6,4.6,52,0.00,CLR,,0.00,WeatherDisplay:10.37,2013-08-27 15:00:00,
2013-08-27 10:02:00,88.2,68.3,28.64,West,270,5.8,5.8,52,0.00,CLR,,0.00,WeatherDisplay:10.37,2013-08-27 15:02:00,
2013-08-27 10:03:00,88.5,68.1,28.64,SSW,202,4.6,4.6,51,0.00,CLR,,0.00,WeatherDisplay:10.37,2013-08-27 15:03:00,
2013-08-27 10:04:00,88.7,68.2,28.64,North,0,5.8,5.8,51,0.00,CLR,,0.00,WeatherDisplay:10.37,2013-08-27 15:04:00,
2013-08-27 10:05:00,88.7,68.8,28.64,WSW,248,2.9,2.9,52,0.00,CLR,,0.00,WeatherDisplay:10.37,2013-08-27 15:05:00,
2013-08-27 10:07:00,90.0,68.8,28.64,SSW,202,4.6,4.6,50,0.00,CLR,,0.00,WeatherDisplay:10.37,2013-08-27 15:07:00,
2013-08-27 10:08:00,89.8,68.7,28.64,SSW,202,5.8,5.8,50,0.00,CLR,,0.00,WeatherDisplay:10.37,2013-08-27 15:08:00,
2013-08-27 10:10:00,89.6,67.9,28.67,NW,315,5.8,5.8,49,0.00,CLR,,0.00,WeatherDisplay:10.37,2013-08-27 15:10:00,
2013-08-27 10:12:00,89.6,66.7,28.67,SSW,202,4.6,4.6,47,0.00,CLR,,0.00,WeatherDisplay:10.37,2013-08-27 15:12:00,
2013-08-27 10:13:00,89.6,67.3,28.67,NW,315,5.8,5.8,48,0.00,CLR,,0.00,WeatherDisplay:10.37,2013-08-27 15:13:00,
2013-08-27 10:14:00,89.4,67.7,28.67,NE,45,5.4,5.4,49,0.00,CLR,,0.00,WeatherDisplay:10.37,2013-08-27 15:14:00,
2013-08-27 10:15:00,89.4,67.7,28.67,SW,225,5.8,5.8,49,0.00,CLR,,0.00,WeatherDisplay:10.37,2013-08-27 15:15:00,
2013-08-27 10:17:00,90.0,68.8,28.67,WNW,292,5.8,5.8,50,0.00,CLR,,0.00,WeatherDisplay:10.37,2013-08-27 15:17:00,
2013-08-27 10:18:00,90.0,68.8,28.67,West,270,4.7,4.7,50,0.00,CLR,,0.00,WeatherDisplay:10.37,2013-08-27 15:18:00,
2013-08-27 10:20:00,90.0,67.0,28.67,South,180,4.6,4.6,47,0.00,CLR,,0.00,WeatherDisplay:10.37,2013-08-27 15:20:00,
2013-08-27 10:21:00,90.0,67.0,28.67,SW,225,5.8,5.8,47,0.00,CLR,,0.00,WeatherDisplay:10.37,2013-08-27 15:21:00,
2013-08-27 10:23:00,90.0,67.6,28.67,WSW,248,4.6,4.6,48,0.00,CLR,,0.00,WeatherDisplay:10.37,2013-08-27 15:23:00,
2013-08-27 10:25:00,90.0,67.6,28.67,North,0,6.9,6.9,48,0.00,CLR,,0.00,WeatherDisplay:10.37,2013-08-27 15:25:00,
2013-08-27 10:26:00,90.5,68.1,28.67,SSW,202,6.9,6.9,48,0.00,CLR,,0.00,WeatherDisplay:10.37,2013-08-27 15:26:00,
2013-08-27 10:28:00,90.7,67.1,28.67,WSW,248,6.9,6.9,46,0.00,CLR,,0.00,WeatherDisplay:10.37,2013-08-27 15:28:00,
2013-08-27 10:29:00,90.3,66.7,28.67,WSW,248,10.4,10.4,46,0.00,CLR,,0.00,WeatherDisplay:10.37,2013-08-27 15:29:00,
2013-08-27 10:30:00,90.3,67.4,28.67,West,270,10.4,10.4,47,0.00,CLR,,0.00,WeatherDisplay:10.37,2013-08-27 15:30:00,
2013-08-27 10:31:00,90.3,67.4,28.67,WSW,248,5.6,5.6,47,0.00,CLR,,0.00,WeatherDisplay:10.37,2013-08-27 15:31:00,
2013-08-27 10:32:00,90.3,67.4,28.67,SSW,202,5.8,5.8,47,0.00,CLR,,0.00,WeatherDisplay:10.37,2013-08-27 15:32:00,
2013-08-27 10:33:00,90.0,67.0,28.67,SSE,158,6.9,6.9,47,0.00,CLR,,0.00,WeatherDisplay:10.37,2013-08-27 15:33:00,
2013-08-27 10:34:00,90.0,67.0,28.67,SSW,202,5.8,5.8,47,0.00,CLR,,0.00,WeatherDisplay:10.37,2013-08-27 15:34:00,
2013-08-27 10:35:00,90.3,67.4,28.67,SW,225,4.0,4.0,47,0.00,CLR,,0.00,WeatherDisplay:10.37,2013-08-27 15:35:00,
2013-08-27 10:36:00,90.7,68.3,28.67,SSW,202,5.8,5.8,48,0.00,CLR,,0.00,WeatherDisplay:10.37,2013-08-27 15:36:00,
2013-08-27 10:37:00,91.2,68.8,28.67,WSW,248,3.5,3.5,48,0.00,CLR,,0.00,WeatherDisplay:10.37,2013-08-27 15:37:00,
2013-08-27 10:39:00,91.8,68.0,28.67,SW,225,5.8,5.8,46,0.00,CLR,,0.00,WeatherDisplay:10.37,2013-08-27 15:39:00,
2013-08-27 10:40:00,92.1,68.4,28.64,NW,315,5.8,5.8,46,0.00,CLR,,0.00,WeatherDisplay:10.37,2013-08-27 15:40:00,
2013-08-27 10:41:00,92.7,68.9,28.64,NW,315,2.3,2.3,46,0.00,CLR,,0.00,WeatherDisplay:10.37,2013-08-27 15:41:00,
2013-08-27 10:42:00,92.7,68.9,28.64,NW,315,2.3,2.3,46,0.00,CLR,,0.00,WeatherDisplay:10.37,2013-08-27 15:42:00,
2013-08-27 10:44:00,93.0,68.5,28.64,West,270,2.4,2.6,45,0.00,CLR,,0.00,WeatherDisplay:10.37,2013-08-27 15:44:00,
2013-08-27 10:46:00,92.8,69.6,28.64,South,180,4.6,4.6,47,0.00,CLR,,0.00,WeatherDisplay:10.37,2013-08-27 15:46:00,
2013-08-27 10:47:00,92.7,68.2,28.64,SW,225,4.6,4.6,45,0.00,CLR,,0.00,WeatherDisplay:10.37,2013-08-27 15:47:00,
2013-08-27 10:49:00,93.0,68.5,28.64,West,270,2.3,2.3,45,0.00,CLR,,0.00,WeatherDisplay:10.37,2013-08-27 15:49:00,
2013-08-27 10:51:00,93.6,68.4,28.64,West,270,3.5,3.5,44,0.00,CLR,,0.00,WeatherDisplay:10.37,2013-08-27 15:51:00,
2013-08-27 10:52:00,93.4,68.2,28.64,SE,135,4.6,4.6,44,0.00,CLR,,0.00,WeatherDisplay:10.37,2013-08-27 15:52:00,
2013-08-27 10:54:00,93.6,68.4,28.67,WSW,248,5.8,5.8,44,0.00,CLR,,0.00,WeatherDisplay:10.37,2013-08-27 15:54:00,
2013-08-27 10:55:00,93.6,68.4,28.67,SW,225,2.9,2.9,44,0.00,CLR,,0.00,WeatherDisplay:10.37,2013-08-27 15:55:00,
2013-08-27 10:56:00,93.6,68.4,28.67,WSW,248,3.5,3.5,44,0.00,CLR,,0.00,WeatherDisplay:10.37,2013-08-27 15:56:00,
2013-08-27 10:57:00,93.0,67.9,28.67,WNW,292,11.8,11.8,44,0.00,CLR,,0.00,WeatherDisplay:10.37,2013-08-27 15:57:00,
2013-08-27 10:58:00,92.8,67.7,28.67,SSW,202,11.5,11.5,44,0.00,CLR,,0.00,WeatherDisplay:10.37,2013-08-27 15:58:00,
2013-08-27 11:00:00,92.5,66.7,28.67,WSW,248,5.9,5.9,43,0.00,CLR,,0.00,WeatherDisplay:10.37,2013-08-27 16:00:00,
2013-08-27 11:01:00,92.7,67.6,28.67,WNW,292,5.8,5.8,44,0.00,CLR,,0.00,WeatherDisplay:10.37,2013-08-27 16:01:00,
2013-08-27 11:02:00,92.8,68.4,28.67,East,90,3.5,3.5,45,0.00,CLR,,0.00,WeatherDisplay:10.37,2013-08-27 16:02:00,
2013-08-27 11:03:00,92.8,68.4,28.67,SSE,158,3.5,3.5,45,0.00,CLR,,0.00,WeatherDisplay:10.37,2013-08-27 16:03:00,
2013-08-27 11:05:00,92.7,67.6,28.67,SSW,202,8.1,8.1,44,0.00,CLR,,0.00,WeatherDisplay:10.37,2013-08-27 16:05:00,
2013-08-27 11:06:00,92.5,67.4,28.67,SSW,202,8.1,8.1,44,0.00,CLR,,0.00,WeatherDisplay:10.37,2013-08-27 16:06:00,
2013-08-27 11:08:00,92.3,67.2,28.67,NNW,338,4.6,4.6,44,0.00,CLR,,0.00,WeatherDisplay:10.37,2013-08-27 16:08:00,
2013-08-27 11:10:00,92.3,67.2,28.67,SSE,158,5.8,5.8,44,0.00,CLR,,0.00,WeatherDisplay:10.37,2013-08-27 16:10:00,
2013-08-27 11:11:00,92.7,67.6,28.67,ESE,112,5.8,5.8,44,0.00,CLR,,0.00,WeatherDisplay:10.37,2013-08-27 16:11:00,
2013-08-27 11:13:00,93.2,68.0,28.67,SW,225,3.5,3.5,44,0.00,CLR,,0.00,WeatherDisplay:10.37,2013-08-27 16:13:00,
2013-08-27 11:14:00,93.7,69.2,28.67,NW,315,3.5,3.5,45,0.00,CLR,,0.00,WeatherDisplay:10.37,2013-08-27 16:14:00,
2013-08-27 11:15:00,93.7,68.5,28.67,NW,315,3.5,3.5,44,0.00,CLR,,0.00,WeatherDisplay:10.37,2013-08-27 16:15:00,
2013-08-27 11:16:00,94.1,68.9,28.67,South,180,3.5,3.5,44,0.00,CLR,,0.00,WeatherDisplay:10.37,2013-08-27 16:16:00,
2013-08-27 11:18:00,93.4,67.5,28.67,SW,225,5.8,5.8,43,0.00,CLR,,0.00,WeatherDisplay:10.37,2013-08-27 16:18:00,
2013-08-27 11:19:00,93.4,67.5,28.67,SSW,202,3.6,3.6,43,0.00,CLR,,0.00,WeatherDisplay:10.37,2013-08-27 16:19:00,
2013-08-27 11:20:00,93.6,68.4,28.67,WSW,248,5.8,5.8,44,0.00,CLR,,0.00,WeatherDisplay:10.37,2013-08-27 16:20:00,
2013-08-27 11:21:00,93.6,68.4,28.67,SSE,158,5.8,5.8,44,0.00,CLR,,0.00,WeatherDisplay:10.37,2013-08-27 16:21:00,
2013-08-27 11:22:00,93.2,66.7,28.67,SE,135,5.8,5.8,42,0.00,CLR,,0.00,WeatherDisplay:10.37,2013-08-27 16:22:00,
2013-08-27 11:24:00,93.7,67.9,28.67,SSW,202,3.5,3.5,43,0.00,CLR,,0.00,WeatherDisplay:10.37,2013-08-27 16:24:00,
2013-08-27 11:25:00,93.9,68.0,28.67,SSW,202,3.5,3.5,43,0.00,CLR,,0.00,WeatherDisplay:10.37,2013-08-27 16:25:00,
2013-08-27 11:26:00,94.3,68.3,28.67,SSW,202,4.6,4.6,43,0.00,CLR,,0.00,WeatherDisplay:10.37,2013-08-27 16:26:00,
2013-08-27 11:27:00,94.1,68.2,28.67,SSW,202,3.5,3.5,43,0.00,CLR,,0.00,WeatherDisplay:10.37,2013-08-27 16:27:00,
2013-08-27 11:29:00,94.3,68.3,28.67,SW,225,3.5,3.5,43,0.00,CLR,,0.00,WeatherDisplay:10.37,2013-08-27 16:29:00,
2013-08-27 11:30:00,94.8,68.8,28.67,West,270,3.5,3.5,43,0.00,CLR,,0.00,WeatherDisplay:10.37,2013-08-27 16:30:00,
2013-08-27 11:32:00,94.3,67.7,28.67,SW,225,5.8,5.8,42,0.00,CLR,,0.00,WeatherDisplay:10.37,2013-08-27 16:32:00,
2013-08-27 11:34:00,94.6,68.7,28.67,SW,225,4.7,4.7,43,0.00,CLR,,0.00,WeatherDisplay:10.37,2013-08-27 16:34:00,
2013-08-27 11:35:00,94.8,68.1,28.67,SW,225,4.6,4.6,42,0.00,CLR,,0.00,WeatherDisplay:10.37,2013-08-27 16:35:00,
2013-08-27 11:37:00,94.3,67.7,28.67,West,270,7.4,7.4,42,0.00,CLR,,0.00,WeatherDisplay:10.37,2013-08-27 16:37:00,
2013-08-27 11:39:00,93.9,67.3,28.67,SW,225,5.8,5.8,42,0.00,CLR,,0.00,WeatherDisplay:10.37,2013-08-27 16:39:00,
2013-08-27 11:40:00,94.3,67.7,28.67,ESE,112,3.5,3.5,42,0.00,CLR,,0.00,WeatherDisplay:10.37,2013-08-27 16:40:00,
2013-08-27 11:42:00,94.3,67.0,28.67,SSW,202,4.6,4.6,41,0.00,CLR,,0.00,WeatherDisplay:10.37,2013-08-27 16:42:00,
2013-08-27 11:43:00,94.3,67.0,28.67,SSW,202,4.6,4.6,41,0.00,CLR,,0.00,WeatherDisplay:10.37,2013-08-27 16:43:00,
2013-08-27 11:44:00,94.6,68.0,28.67,West,270,4.6,4.6,42,0.00,CLR,,0.00,WeatherDisplay:10.37,2013-08-27 16:44:00,
2013-08-27 11:46:00,94.6,67.3,28.67,WSW,248,4.6,4.6,41,0.00,CLR,,0.00,WeatherDisplay:10.37,2013-08-27 16:46:00,
2013-08-27 11:47:00,94.5,67.1,28.67,WSW,248,9.0,9.0,41,0.00,CLR,,0.00,WeatherDisplay:10.37,2013-08-27 16:47:00,
2013-08-27 11:48:00,94.5,67.1,28.67,North,0,9.2,9.2,41,0.00,CLR,,0.00,WeatherDisplay:10.37,2013-08-27 16:48:00,
2013-08-27 11:49:00,94.5,67.1,28.67,SW,225,6.9,6.9,41,0.00,CLR,,0.00,WeatherDisplay:10.37,2013-08-27 16:49:00,
2013-08-27 11:50:00,94.5,67.1,28.67,SW,225,5.8,5.8,41,0.00,CLR,,0.00,WeatherDisplay:10.37,2013-08-27 16:50:00,
2013-08-27 11:51:00,94.6,67.3,28.67,WSW,248,5.8,5.8,41,0.00,CLR,,0.00,WeatherDisplay:10.37,2013-08-27 16:51:00,
2013-08-27 11:52:00,94.8,66.7,28.67,SSW,202,4.6,4.6,40,0.00,CLR,,0.00,WeatherDisplay:10.37,2013-08-27 16:52:00,
2013-08-27 11:53:00,94.8,66.7,28.67,WSW,248,8.1,8.1,40,0.00,CLR,,0.00,WeatherDisplay:10.37,2013-08-27 16:53:00,
2013-08-27 11:54:00,94.8,66.7,28.67,WSW,248,5.8,5.8,40,0.00,CLR,,0.00,WeatherDisplay:10.37,2013-08-27 16:54:00,
2013-08-27 11:55:00,95.0,67.6,28.67,SW,225,5.8,5.8,41,0.00,CLR,,0.00,WeatherDisplay:10.37,2013-08-27 16:55:00,
2013-08-27 11:56:00,95.4,67.2,28.67,North,0,6.4,6.4,40,0.00,CLR,,0.00,WeatherDisplay:10.37,2013-08-27 16:56:00,
2013-08-27 11:58:00,94.6,66.6,28.67,SW,225,6.9,6.9,40,0.00,CLR,,0.00,WeatherDisplay:10.37,2013-08-27 16:58:00,
2013-08-27 11:59:00,94.8,67.4,28.67,SE,135,3.5,3.5,41,0.00,CLR,,0.00,WeatherDisplay:10.37,2013-08-27 16:59:00,
2013-08-27 12:00:00,95.2,67.8,28.67,SW,225,3.5,3.5,41,0.00,CLR,,0.00,WeatherDisplay:10.37,2013-08-27 17:00:00,
2013-08-27 12:01:00,95.5,68.1,28.67,WSW,248,3.5,3.5,41,0.00,CLR,,0.00,WeatherDisplay:10.37,2013-08-27 17:01:00,
2013-08-27 12:03:00,96.1,68.6,28.67,SSW,202,4.6,4.6,41,0.00,CLR,,0.00,WeatherDisplay:10.37,2013-08-27 17:03:00,
2013-08-27 12:04:00,96.1,68.6,28.67,WSW,248,3.5,3.5,41,0.00,CLR,,0.00,WeatherDisplay:10.37,2013-08-27 17:04:00,
2013-08-27 12:05:00,95.4,66.5,28.67,South,180,5.8,5.8,39,0.00,CLR,,0.00,WeatherDisplay:10.37,2013-08-27 17:05:00,
2013-08-27 12:06:00,95.2,66.3,28.67,SW,225,3.6,4.0,39,0.00,CLR,,0.00,WeatherDisplay:10.37,2013-08-27 17:06:00,
2013-08-27 12:08:00,94.3,66.3,28.67,NNW,338,9.2,9.2,40,0.00,CLR,,0.00,WeatherDisplay:10.37,2013-08-27 17:08:00,
2013-08-27 12:09:00,94.3,66.3,28.67,South,180,9.2,9.2,40,0.00,CLR,,0.00,WeatherDisplay:10.37,2013-08-27 17:09:00,
2013-08-27 12:10:00,94.3,66.3,28.67,West,270,5.8,5.8,40,0.00,CLR,,0.00,WeatherDisplay:10.37,2013-08-27 17:10:00,
2013-08-27 12:11:00,94.3,66.3,28.67,West,270,3.6,4.3,40,0.00,CLR,,0.00,WeatherDisplay:10.37,2013-08-27 17:11:00,
2013-08-27 12:13:00,94.3,66.3,28.67,SW,225,7.6,7.6,40,0.00,CLR,,0.00,WeatherDisplay:10.37,2013-08-27 17:13:00,
2013-08-27 12:14:00,94.1,65.4,28.67,SSW,202,8.1,8.1,39,0.00,CLR,,0.00,WeatherDisplay:10.37,2013-08-27 17:14:00,
2013-08-27 12:15:00,93.9,65.2,28.67,SW,225,12.7,12.7,39,0.00,CLR,,0.00,WeatherDisplay:10.37,2013-08-27 17:15:00,
2013-08-27 12:16:00,93.6,65.6,28.67,SW,225,5.8,5.8,40,0.00,CLR,,0.00,WeatherDisplay:10.37,2013-08-27 17:16:00,
2013-08-27 12:17:00,93.9,65.9,28.67,SSE,158,5.8,5.8,40,0.00,CLR,,0.00,WeatherDisplay:10.37,2013-08-27 17:17:00,
2013-08-27 12:18:00,94.1,66.8,28.67,North,0,5.8,5.8,41,0.00,CLR,,0.00,WeatherDisplay:10.37,2013-08-27 17:18:00,
2013-08-27 12:19:00,94.1,66.1,28.67,North,0,4.6,4.6,40,0.00,CLR,,0.00,WeatherDisplay:10.37,2013-08-27 17:19:00,
2013-08-27 12:20:00,94.1,66.1,28.67,WSW,248,3.5,4.0,40,0.00,CLR,,0.00,WeatherDisplay:10.37,2013-08-27 17:20:00,
2013-08-27 12:21:00,94.3,66.3,28.67,West,270,8.1,8.1,40,0.00,CLR,,0.00,WeatherDisplay:10.37,2013-08-27 17:21:00,
2013-08-27 12:22:00,94.3,66.3,28.67,NW,315,8.1,8.1,40,0.00,CLR,,0.00,WeatherDisplay:10.37,2013-08-27 17:22:00,
2013-08-27 12:23:00,94.3,66.3,28.67,NW,315,2.3,2.3,40,0.00,CLR,,0.00,WeatherDisplay:10.37,2013-08-27 17:23:00,
2013-08-27 12:24:00,95.4,67.2,28.67,WSW,248,3.3,3.3,40,0.00,CLR,,0.00,WeatherDisplay:10.37,2013-08-27 17:24:00,
2013-08-27 12:25:00,95.2,66.3,28.67,SW,225,11.5,11.5,39,0.00,CLR,,0.00,WeatherDisplay:10.37,2013-08-27 17:25:00,
2013-08-27 12:26:00,95.0,66.2,28.67,NW,315,11.5,11.5,39,0.00,CLR,,0.00,WeatherDisplay:10.37,2013-08-27 17:26:00,
2013-08-27 12:27:00,95.4,67.2,28.67,West,270,4.6,4.6,40,0.00,CLR,,0.00,WeatherDisplay:10.37,2013-08-27 17:27:00,
2013-08-27 12:28:00,95.5,66.6,28.67,SE,135,4.0,4.0,39,0.00,CLR,,0.00,WeatherDisplay:10.37,2013-08-27 17:28:00,
2013-08-27 12:29:00,95.7,67.5,28.67,NW,315,5.8,5.8,40,0.00,CLR,,0.00,WeatherDisplay:10.37,2013-08-27 17:29:00,
2013-08-27 12:31:00,95.5,66.6,28.67,WSW,248,8.1,8.1,39,0.00,CLR,,0.00,WeatherDisplay:10.37,2013-08-27 17:31:00,
2013-08-27 12:32:00,95.2,65.6,28.67,NNE,22,8.1,8.1,38,0.00,CLR,,0.00,WeatherDisplay:10.37,2013-08-27 17:32:00,
2013-08-27 12:33:00,95.4,66.5,28.67,West,270,8.1,8.1,39,0.00,CLR,,0.00,WeatherDisplay:10.37,2013-08-27 17:33:00,
2013-08-27 12:34:00,95.2,67.1,28.67,NW,315,4.6,4.6,40,0.00,CLR,,0.00,WeatherDisplay:10.37,2013-08-27 17:34:00,
2013-08-27 12:36:00,95.7,67.5,28.67,NW,315,5.9,5.9,40,0.00,CLR,,0.00,WeatherDisplay:10.37,2013-08-27 17:36:00,
2013-08-27 12:37:00,95.5,66.6,28.67,NW,315,5.8,5.8,39,0.00,CLR,,0.00,WeatherDisplay:10.37,2013-08-27 17:37:00,
2013-08-27 12:39:00,95.7,66.8,28.67,NW,315,5.8,5.8,39,0.00,CLR,,0.00,WeatherDisplay:10.37,2013-08-27 17:39:00,
2013-08-27 12:40:00,95.8,66.9,28.67,West,271,2.0,6.0,39,0.00,CLR,,0.00,WeatherDisplay:10.37,2013-08-27 17:40:00,
2013-08-27 12:41:00,95.0,66.2,28.64,WSW,248,3.8,4.3,39,0.00,CLR,,0.00,WeatherDisplay:10.37,2013-08-27 17:41:00,
2013-08-27 12:42:00,95.2,66.3,28.64,WSW,248,5.8,5.8,39,0.00,CLR,,0.00,WeatherDisplay:10.37,2013-08-27 17:42:00,
2013-08-27 12:44:00,94.6,66.6,28.64,SW,225,6.9,6.9,40,0.00,CLR,,0.00,WeatherDisplay:10.37,2013-08-27 17:44:00,
2013-08-27 12:45:00,94.6,66.6,28.64,West,270,5.8,5.8,40,0.00,CLR,,0.00,WeatherDisplay:10.37,2013-08-27 17:45:00,
2013-08-27 12:46:00,94.6,66.6,28.64,WNW,292,6.9,6.9,40,0.00,CLR,,0.00,WeatherDisplay:10.37,2013-08-27 17:46:00,
2013-08-27 12:47:00,94.6,66.6,28.64,WSW,248,6.9,6.9,40,0.00,CLR,,0.00,WeatherDisplay:10.37,2013-08-27 17:47:00,
2013-08-27 12:49:00,94.5,67.1,28.64,WSW,248,5.8,5.8,41,0.00,CLR,,0.00,WeatherDisplay:10.37,2013-08-27 17:49:00,
2013-08-27 12:50:00,94.5,66.4,28.64,SSE,158,3.5,3.5,40,0.00,CLR,,0.00,WeatherDisplay:10.37,2013-08-27 17:50:00,
2013-08-27 12:51:00,95.2,67.1,28.64,SSE,158,4.6,4.6,40,0.00,CLR,,0.00,WeatherDisplay:10.37,2013-08-27 17:51:00,
2013-08-27 12:53:00,95.4,67.9,28.64,NNE,22,3.5,3.5,41,0.00,CLR,,0.00,WeatherDisplay:10.37,2013-08-27 17:53:00,
2013-08-27 12:54:00,95.5,67.4,28.64,West,270,4.6,4.6,40,0.00,CLR,,0.00,WeatherDisplay:10.37,2013-08-27 17:54:00,
2013-08-27 12:55:00,95.5,67.4,28.64,SSW,202,4.6,4.6,40,0.00,CLR,,0.00,WeatherDisplay:10.37,2013-08-27 17:55:00,
2013-08-27 12:57:00,95.7,67.5,28.64,SW,225,4.6,4.6,40,0.00,CLR,,0.00,WeatherDisplay:10.37,2013-08-27 17:57:00,
2013-08-27 12:58:00,96.1,67.9,28.64,NNW,338,2.9,2.9,40,0.00,CLR,,0.00,WeatherDisplay:10.37,2013-08-27 17:58:00,
2013-08-27 12:59:00,96.3,68.0,28.64,WSW,248,5.8,5.8,40,0.00,CLR,,0.00,WeatherDisplay:10.37,2013-08-27 17:59:00,
2013-08-27 13:00:00,96.3,68.0,28.64,South,180,5.8,5.8,40,0.00,CLR,,0.00,WeatherDisplay:10.37,2013-08-27 18:00:00,
2013-08-27 13:02:00,95.9,67.0,28.64,SSW,202,5.8,5.8,39,0.00,CLR,,0.00,WeatherDisplay:10.37,2013-08-27 18:02:00,
2013-08-27 13:03:00,95.7,66.8,28.64,WSW,248,7.1,7.1,39,0.00,CLR,,0.00,WeatherDisplay:10.37,2013-08-27 18:03:00,
2013-08-27 13:04:00,95.4,66.5,28.64,NW,315,8.1,8.1,39,0.00,CLR,,0.00,WeatherDisplay:10.37,2013-08-27 18:04:00,
2013-08-27 13:05:00,95.5,66.6,28.64,ESE,112,6.9,6.9,39,0.00,CLR,,0.00,WeatherDisplay:10.37,2013-08-27 18:05:00,
2013-08-27 13:07:00,96.1,67.1,28.64,SSW,202,6.0,6.0,39,0.00,CLR,,0.00,WeatherDisplay:10.37,2013-08-27 18:07:00,
2013-08-27 13:08:00,96.3,67.3,28.64,West,270,5.8,5.8,39,0.00,CLR,,0.00,WeatherDisplay:10.37,2013-08-27 18:08:00,
2013-08-27 13:09:00,95.9,66.2,28.64,SW,225,5.8,5.8,38,0.00,CLR,,0.00,WeatherDisplay:10.37,2013-08-27 18:09:00,
2013-08-27 13:10:00,96.1,66.4,28.64,West,270,6.9,6.9,38,0.00,CLR,,0.00,WeatherDisplay:10.37,2013-08-27 18:10:00,
2013-08-27 13:12:00,96.1,66.4,28.64,WNW,292,5.8,5.8,38,0.00,CLR,,0.00,WeatherDisplay:10.37,2013-08-27 18:12:00,
2013-08-27 13:13:00,96.3,67.3,28.64,West,270,4.6,4.6,39,0.00,CLR,,0.00,WeatherDisplay:10.37,2013-08-27 18:13:00,
2013-08-27 13:14:00,96.4,67.4,28.64,WSW,248,5.6,5.6,39,0.00,CLR,,0.00,WeatherDisplay:10.37,2013-08-27 18:14:00,
2013-08-27 13:16:00,96.4,67.4,28.64,NW,315,5.8,5.9,39,0.00,CLR,,0.00,WeatherDisplay:10.37,2013-08-27 18:16:00,
2013-08-27 13:18:00,95.9,67.0,28.64,West,270,5.8,5.8,39,0.00,CLR,,0.00,WeatherDisplay:10.37,2013-08-27 18:18:00,
2013-08-27 13:20:00,96.1,67.1,28.64,NW,315,3.5,3.5,39,0.00,CLR,,0.00,WeatherDisplay:10.37,2013-08-27 18:20:00,
2013-08-27 13:21:00,96.3,68.0,28.64,West,270,2.3,2.6,40,0.00,CLR,,0.00,WeatherDisplay:10.37,2013-08-27 18:21:00,
2013-08-27 13:23:00,97.2,68.1,28.64,North,0,3.1,3.1,39,0.00,CLR,,0.00,WeatherDisplay:10.37,2013-08-27 18:23:00,
2013-08-27 13:24:00,96.8,67.8,28.64,North,0,3.5,3.5,39,0.00,CLR,,0.00,WeatherDisplay:10.37,2013-08-27 18:24:00,
2013-08-27 13:25:00,96.8,67.8,28.64,North,0,3.5,3.5,39,0.00,CLR,,0.00,WeatherDisplay:10.37,2013-08-27 18:25:00,
2013-08-27 13:27:00,97.3,67.5,28.64,North,0,4.6,4.6,38,0.00,CLR,,0.00,WeatherDisplay:10.37,2013-08-27 18:27:00,
2013-08-27 13:28:00,97.3,67.5,28.64,SSE,158,3.5,3.5,38,0.00,CLR,,0.00,WeatherDisplay:10.37,2013-08-27 18:28:00,
2013-08-27 13:29:00,97.2,67.3,28.64,WSW,248,3.5,3.5,38,0.00,CLR,,0.00,WeatherDisplay:10.37,2013-08-27 18:29:00,
2013-08-27 13:30:00,97.2,67.3,28.64,SW,225,4.6,4.6,38,0.00,CLR,,0.00,WeatherDisplay:10.37,2013-08-27 18:30:00,
2013-08-27 13:32:00,97.2,67.3,28.64,SW,225,4.6,4.6,38,0.00,CLR,,0.00,WeatherDisplay:10.37,2013-08-27 18:32:00,
2013-08-27 13:33:00,97.2,67.3,28.64,West,270,3.5,3.5,38,0.00,CLR,,0.00,WeatherDisplay:10.37,2013-08-27 18:33:00,
2013-08-27 13:34:00,97.2,67.3,28.64,SW,225,3.5,3.5,38,0.00,CLR,,0.00,WeatherDisplay:10.37,2013-08-27 18:34:00,
2013-08-27 13:35:00,97.3,67.5,28.64,West,270,3.6,3.6,38,0.00,CLR,,0.00,WeatherDisplay:10.37,2013-08-27 18:35:00,
2013-08-27 13:37:00,97.7,67.8,28.64,SSW,202,3.5,3.5,38,0.00,CLR,,0.00,WeatherDisplay:10.37,2013-08-27 18:37:00,
2013-08-27 13:38:00,97.7,67.8,28.64,SE,135,6.0,6.0,38,0.00,CLR,,0.00,WeatherDisplay:10.37,2013-08-27 18:38:00,
2013-08-27 13:39:00,96.4,65.9,28.64,WSW,248,8.1,8.1,37,0.00,CLR,,0.00,WeatherDisplay:10.37,2013-08-27 18:39:00,
2013-08-27 13:40:00,96.4,65.9,28.64,SE,135,4.6,4.6,37,0.00,CLR,,0.00,WeatherDisplay:10.37,2013-08-27 18:40:00,
2013-08-27 13:41:00,96.4,65.9,28.64,SW,225,3.5,3.6,37,0.00,CLR,,0.00,WeatherDisplay:10.37,2013-08-27 18:41:00,
2013-08-27 13:42:00,96.4,66.7,28.64,West,270,3.5,3.6,38,0.00,CLR,,0.00,WeatherDisplay:10.37,2013-08-27 18:42:00,
2013-08-27 13:43:00,96.6,66.8,28.64,East,90,5.6,5.6,38,0.00,CLR,,0.00,WeatherDisplay:10.37,2013-08-27 18:43:00,
2013-08-27 13:44:00,96.3,66.5,28.64,West,270,5.9,5.9,38,0.00,CLR,,0.00,WeatherDisplay:10.37,2013-08-27 18:44:00,
2013-08-27 13:45:00,96.3,66.5,28.64,WSW,248,5.8,5.8,38,0.00,CLR,,0.00,WeatherDisplay:10.37,2013-08-27 18:45:00,
2013-08-27 13:48:00,97.0,67.2,28.64,WNW,292,4.3,4.3,38,0.00,CLR,,0.00,WeatherDisplay:10.37,2013-08-27 18:48:00,
2013-08-27 13:49:00,97.0,67.2,28.64,SW,225,4.6,4.6,38,0.00,CLR,,0.00,WeatherDisplay:10.37,2013-08-27 18:49:00,
2013-08-27 13:50:00,97.0,67.2,28.64,West,270,5.8,5.8,38,0.00,CLR,,0.00,WeatherDisplay:10.37,2013-08-27 18:50:00,
2013-08-27 13:53:00,96.4,66.7,28.64,West,270,5.8,5.8,38,0.00,CLR,,0.00,WeatherDisplay:10.37,2013-08-27 18:53:00,
2013-08-27 13:54:00,95.9,66.2,28.64,West,270,7.8,7.8,38,0.00,CLR,,0.00,WeatherDisplay:10.37,2013-08-27 18:54:00,
2013-08-27 13:55:00,95.9,66.2,28.64,WSW,251,3.0,12.0,38,0.00,CLR,,0.00,WeatherDisplay:10.37,2013-08-27 18:55:00,
2013-08-27 13:58:00,96.1,66.4,28.64,WSW,248,2.9,2.9,38,0.00,CLR,,0.00,WeatherDisplay:10.37,2013-08-27 18:58:00,
2013-08-27 13:59:00,97.0,67.2,28.64,West,270,2.3,2.3,38,0.00,CLR,,0.00,WeatherDisplay:10.37,2013-08-27 18:59:00,
2013-08-27 14:00:00,96.8,67.0,28.64,SSW,202,7.1,7.1,38,0.00,CLR,,0.00,WeatherDisplay:10.37,2013-08-27 19:00:00,
2013-08-27 14:03:00,95.9,66.2,28.64,SW,225,6.9,6.9,38,0.00,CLR,,0.00,WeatherDisplay:10.37,2013-08-27 19:03:00,
2013-08-27 14:04:00,95.9,66.2,28.64,WSW,248,5.8,5.8,38,0.00,CLR,,0.00,WeatherDisplay:10.37,2013-08-27 19:04:00,
2013-08-27 14:05:00,95.9,66.2,28.64,SSW,202,5.8,5.8,38,0.00,CLR,,0.00,WeatherDisplay:10.37,2013-08-27 19:05:00,
2013-08-27 14:08:00,95.7,66.0,28.64,NW,315,7.6,7.6,38,0.00,CLR,,0.00,WeatherDisplay:10.37,2013-08-27 19:08:00,
2013-08-27 14:09:00,95.9,66.2,28.64,WNW,292,8.1,8.1,38,0.00,CLR,,0.00,WeatherDisplay:10.37,2013-08-27 19:09:00,
2013-08-27 14:10:00,95.9,66.2,28.61,NW,315,8.1,8.1,38,0.00,CLR,,0.00,WeatherDisplay:10.37,2013-08-27 19:10:00,
2013-08-27 14:14:00,95.7,66.0,28.61,SSE,158,4.7,4.7,38,0.00,CLR,,0.00,WeatherDisplay:10.37,2013-08-27 19:14:00,
2013-08-27 14:15:00,95.7,66.0,28.61,West,270,4.6,4.6,38,0.00,CLR,,0.00,WeatherDisplay:10.37,2013-08-27 19:15:00,
2013-08-27 14:19:00,95.9,66.2,28.61,North,0,6.9,6.9,38,0.00,CLR,,0.00,WeatherDisplay:10.37,2013-08-27 19:19:00,
2013-08-27 14:20:00,95.9,66.2,28.61,SW,231,3.0,7.0,38,0.00,CLR,,0.00,WeatherDisplay:10.37,2013-08-27 19:20:00,
2013-08-27 14:21:00,95.7,66.0,28.61,SSW,202,6.9,6.9,38,0.00,CLR,,0.00,WeatherDisplay:10.37,2013-08-27 19:21:00,
2013-08-27 14:24:00,95.4,65.7,28.61,SSW,202,8.1,8.1,38,0.00,CLR,,0.00,WeatherDisplay:10.37,2013-08-27 19:24:00,
2013-08-27 14:25:00,95.4,66.5,28.61,West,270,3.6,3.8,39,0.00,CLR,,0.00,WeatherDisplay:10.37,2013-08-27 19:25:00,
2013-08-27 14:26:00,95.5,66.6,28.61,North,0,3.5,3.8,39,0.00,CLR,,0.00,WeatherDisplay:10.37,2013-08-27 19:26:00,
2013-08-27 14:29:00,96.1,67.1,28.61,SW,225,5.8,5.8,39,0.00,CLR,,0.00,WeatherDisplay:10.37,2013-08-27 19:29:00,
2013-08-27 14:30:00,96.1,67.1,28.61,SW,225,6.0,6.0,39,0.00,CLR,,0.00,WeatherDisplay:10.37,2013-08-27 19:30:00,
2013-08-27 14:31:00,96.1,67.1,28.61,WSW,248,5.8,5.8,39,0.00,CLR,,0.00,WeatherDisplay:10.37,2013-08-27 19:31:00,
2013-08-27 14:34:00,96.4,67.4,28.61,West,270,5.8,5.8,39,0.00,CLR,,0.00,WeatherDisplay:10.37,2013-08-27 19:34:00,
2013-08-27 14:35:00,96.8,67.0,28.61,WSW,248,2.4,2.4,38,0.00,CLR,,0.00,WeatherDisplay:10.37,2013-08-27 19:35:00,
2013-08-27 14:36:00,96.8,67.0,28.61,SW,225,4.6,4.6,38,0.00,CLR,,0.00,WeatherDisplay:10.37,2013-08-27 19:36:00,
2013-08-27 14:39:00,97.0,66.4,28.61,West,270,9.7,9.7,37,0.00,CLR,,0.00,WeatherDisplay:10.37,2013-08-27 19:39:00,
2013-08-27 14:40:00,97.0,66.4,28.61,West,270,9.2,9.2,37,0.00,CLR,,0.00,WeatherDisplay:10.37,2013-08-27 19:40:00,
2013-08-27 14:41:00,96.6,66.1,28.61,West,270,9.2,9.2,37,0.00,CLR,,0.00,WeatherDisplay:10.37,2013-08-27 19:41:00,
2013-08-27 14:44:00,96.3,66.5,28.61,WSW,248,9.2,9.2,38,0.00,CLR,,0.00,WeatherDisplay:10.37,2013-08-27 19:44:00,
2013-08-27 14:46:00,96.6,67.6,28.61,NW,315,3.5,3.5,39,0.00,CLR,,0.00,WeatherDisplay:10.37,2013-08-27 19:46:00,
2013-08-27 14:47:00,96.4,66.7,28.61,West,270,8.1,8.1,38,0.00,CLR,,0.00,WeatherDisplay:10.37,2013-08-27 19:47:00,
2013-08-27 14:50:00,96.4,66.7,28.61,SW,225,5.8,5.8,38,0.00,CLR,,0.00,WeatherDisplay:10.37,2013-08-27 19:50:00,
2013-08-27 14:51:00,96.4,67.4,28.61,NW,315,3.5,3.5,39,0.00,CLR,,0.00,WeatherDisplay:10.37,2013-08-27 19:51:00,
2013-08-27 14:52:00,96.6,67.6,28.61,West,270,4.0,4.0,39,0.00,CLR,,0.00,WeatherDisplay:10.37,2013-08-27 19:52:00,
2013-08-27 14:55:00,96.4,67.4,28.61,West,270,4.9,4.9,39,0.00,CLR,,0.00,WeatherDisplay:10.37,2013-08-27 19:55:00,
2013-08-27 14:56:00,96.6,67.6,28.61,SW,225,9.2,9.2,39,0.00,CLR,,0.00,WeatherDisplay:10.37,2013-08-27 19:56:00,
2013-08-27 14:57:00,96.1,67.1,28.61,SSW,202,10.4,10.4,39,0.00,CLR,,0.00,WeatherDisplay:10.37,2013-08-27 19:57:00,
2013-08-27 15:00:00,95.4,66.5,28.61,West,270,8.5,8.5,39,0.00,CLR,,0.00,WeatherDisplay:10.37,2013-08-27 20:00:00,
2013-08-27 15:01:00,95.5,66.6,28.61,SW,225,8.1,8.1,39,0.00,CLR,,0.00,WeatherDisplay:10.37,2013-08-27 20:01:00,
2013-08-27 15:02:00,96.1,67.9,28.61,SW,225,5.8,5.8,40,0.00,CLR,,0.00,WeatherDisplay:10.37,2013-08-27 20:02:00,
2013-08-27 15:05:00,96.4,67.4,28.61,West,270,5.8,5.8,39,0.00,CLR,,0.00,WeatherDisplay:10.37,2013-08-27 20:05:00,
2013-08-27 15:06:00,96.3,67.3,28.61,WNW,292,5.8,5.8,39,0.00,CLR,,0.00,WeatherDisplay:10.37,2013-08-27 20:06:00,
2013-08-27 15:07:00,96.3,67.3,28.61,West,270,5.8,5.8,39,0.00,CLR,,0.00,WeatherDisplay:10.37,2013-08-27 20:07:00,
2013-08-27 15:11:00,95.9,67.0,28.61,West,270,3.8,3.8,39,0.00,CLR,,0.00,WeatherDisplay:10.37,2013-08-27 20:11:00,
2013-08-27 15:12:00,96.4,68.2,28.61,WSW,248,3.5,3.5,40,0.00,CLR,,0.00,WeatherDisplay:10.37,2013-08-27 20:12:00,
2013-08-27 15:13:00,96.4,68.2,28.61,WSW,248,3.5,3.5,40,0.00,CLR,,0.00,WeatherDisplay:10.37,2013-08-27 20:13:00,
2013-08-27 15:16:00,96.4,67.4,28.61,West,270,3.5,3.5,39,0.00,CLR,,0.00,WeatherDisplay:10.37,2013-08-27 20:16:00,
2013-08-27 15:17:00,96.4,68.2,28.61,West,270,7.6,7.6,40,0.00,CLR,,0.00,WeatherDisplay:10.37,2013-08-27 20:17:00,
2013-08-27 15:18:00,96.4,67.4,28.61,NW,315,8.1,8.1,39,0.00,CLR,,0.00,WeatherDisplay:10.37,2013-08-27 20:18:00,
2013-08-27 15:21:00,95.9,67.0,28.61,SSE,158,5.8,5.8,39,0.00,CLR,,0.00,WeatherDisplay:10.37,2013-08-27 20:21:00,
2013-08-27 15:22:00,95.9,67.0,28.61,SSW,202,5.8,5.8,39,0.00,CLR,,0.00,WeatherDisplay:10.37,2013-08-27 20:22:00,
2013-08-27 15:23:00,96.1,67.9,28.61,ESE,112,5.8,5.8,40,0.00,CLR,,0.00,WeatherDisplay:10.37,2013-08-27 20:23:00,
2013-08-27 15:27:00,95.9,67.0,28.61,WSW,248,8.1,8.1,39,0.00,CLR,,0.00,WeatherDisplay:10.37,2013-08-27 20:27:00,
2013-08-27 15:28:00,95.9,67.0,28.61,WSW,248,8.1,8.1,39,0.00,CLR,,0.00,WeatherDisplay:10.37,2013-08-27 20:28:00,
2013-08-27 15:32:00,95.9,67.0,28.61,WSW,248,5.8,5.8,39,0.00,CLR,,0.00,WeatherDisplay:10.37,2013-08-27 20:32:00,
2013-08-27 15:33:00,95.7,66.8,28.61,SSW,202,8.1,8.1,39,0.00,CLR,,0.00,WeatherDisplay:10.37,2013-08-27 20:33:00,
2013-08-27 15:34:00,95.5,66.6,28.61,NW,315,6.9,6.9,39,0.00,CLR,,0.00,WeatherDisplay:10.37,2013-08-27 20:34:00,
2013-08-27 15:37:00,95.5,66.6,28.61,West,270,10.4,10.4,39,0.00,CLR,,0.00,WeatherDisplay:10.37,2013-08-27 20:37:00,
2013-08-27 15:38:00,95.4,66.5,28.61,South,180,6.9,6.9,39,0.00,CLR,,0.00,WeatherDisplay:10.37,2013-08-27 20:38:00,
2013-08-27 15:39:00,95.2,66.3,28.61,West,270,5.8,5.8,39,0.00,CLR,,0.00,WeatherDisplay:10.37,2013-08-27 20:39:00,
2013-08-27 15:42:00,95.9,67.0,28.61,NW,315,3.5,3.8,39,0.00,CLR,,0.00,WeatherDisplay:10.37,2013-08-27 20:42:00,
2013-08-27 15:43:00,95.9,67.0,28.61,NW,315,6.9,6.9,39,0.00,CLR,,0.00,WeatherDisplay:10.37,2013-08-27 20:43:00,
2013-08-27 15:45:00,95.4,66.5,28.61,West,270,8.1,8.1,39,0.00,CLR,,0.00,WeatherDisplay:10.37,2013-08-27 20:45:00,
2013-08-27 15:47:00,95.4,67.2,28.61,WSW,248,3.5,3.5,40,0.00,CLR,,0.00,WeatherDisplay:10.37,2013-08-27 20:47:00,
2013-08-27 15:48:00,95.5,67.4,28.61,West,270,4.3,4.3,40,0.00,CLR,,0.00,WeatherDisplay:10.37,2013-08-27 20:48:00,
2013-08-27 15:50:00,95.5,67.4,28.61,WSW,248,9.2,9.2,40,0.00,CLR,,0.00,WeatherDisplay:10.37,2013-08-27 20:50:00,
2013-08-27 15:53:00,95.2,67.8,28.61,West,270,5.8,5.8,41,0.00,CLR,,0.00,WeatherDisplay:10.37,2013-08-27 20:53:00,
2013-08-27 15:54:00,95.2,67.8,28.61,SSW,202,3.5,3.5,41,0.00,CLR,,0.00,WeatherDisplay:10.37,2013-08-27 20:54:00,
2013-08-27 15:55:00,95.0,66.9,28.61,WSW,248,5.8,5.8,40,0.00,CLR,,0.00,WeatherDisplay:10.37,2013-08-27 20:55:00,
2013-08-27 15:58:00,95.5,67.4,28.61,West,270,9.2,9.2,40,0.00,CLR,,0.00,WeatherDisplay:10.37,2013-08-27 20:58:00,
2013-08-27 15:59:00,95.5,67.4,28.61,WNW,292,10.9,10.9,40,0.00,CLR,,0.00,WeatherDisplay:10.37,2013-08-27 20:59:00,
2013-08-27 16:00:00,95.2,67.1,28.61,WSW,248,11.5,11.5,40,0.00,CLR,,0.00,WeatherDisplay:10.37,2013-08-27 21:00:00,
2013-08-27 16:03:00,95.2,67.1,28.61,WNW,292,6.9,6.9,40,0.00,CLR,,0.00,WeatherDisplay:10.37,2013-08-27 21:03:00,
2013-08-27 16:04:00,95.2,67.1,28.61,WNW,292,5.8,5.8,40,0.00,CLR,,0.00,WeatherDisplay:10.37,2013-08-27 21:04:00,
2013-08-27 16:05:00,95.4,67.2,28.61,NW,315,4.6,4.6,40,0.00,CLR,,0.00,WeatherDisplay:10.37,2013-08-27 21:05:00,
2013-08-27 16:08:00,95.2,67.8,28.61,WSW,248,6.9,6.9,41,0.00,CLR,,0.00,WeatherDisplay:10.37,2013-08-27 21:08:00,
2013-08-27 16:09:00,95.2,67.1,28.61,WSW,248,5.8,5.8,40,0.00,CLR,,0.00,WeatherDisplay:10.37,2013-08-27 21:09:00,
2013-08-27 16:10:00,95.4,67.2,28.61,SW,225,4.6,4.6,40,0.00,CLR,,0.00,WeatherDisplay:10.37,2013-08-27 21:10:00,
2013-08-27 16:14:00,94.8,67.4,28.61,SW,225,5.8,5.8,41,0.00,CLR,,0.00,WeatherDisplay:10.37,2013-08-27 21:14:00,
2013-08-27 16:19:00,94.3,67.0,28.61,WSW,248,10.4,10.4,41,0.00,CLR,,0.00,WeatherDisplay:10.37,2013-08-27 21:19:00,
2013-08-27 16:20:00,94.3,67.0,28.61,West,261,6.0,11.0,41,0.00,CLR,,0.00,WeatherDisplay:10.37,2013-08-27 21:20:00,
2013-08-27 16:25:00,94.3,67.0,28.61,West,273,3.0,9.0,41,0.00,CLR,,0.00,WeatherDisplay:10.37,2013-08-27 21:25:00,
2013-08-27 16:30:00,94.2,67.6,28.61,WSW,256,2.0,12.0,42,0.00,CLR,,0.00,WeatherDisplay:10.37,2013-08-27 21:30:00,
2013-08-27 16:31:00,94.3,67.7,28.61,North,0,5.8,5.8,42,0.00,CLR,,0.00,WeatherDisplay:10.37,2013-08-27 21:31:00,
2013-08-27 16:32:00,94.3,67.0,28.61,West,270,4.6,4.6,41,0.00,CLR,,0.00,WeatherDisplay:10.37,2013-08-27 21:32:00,
2013-08-27 16:33:00,94.3,67.7,28.61,WSW,248,5.8,5.8,42,0.00,CLR,,0.00,WeatherDisplay:10.37,2013-08-27 21:33:00,
2013-08-27 16:38:00,94.3,67.7,28.61,SW,225,4.7,4.7,42,0.00,CLR,,0.00,WeatherDisplay:10.37,2013-08-27 21:38:00,
2013-08-27 16:42:00,94.3,68.3,28.61,NW,315,5.4,5.4,43,0.00,CLR,,0.00,WeatherDisplay:10.37,2013-08-27 21:42:00,
2013-08-27 16:43:00,94.5,68.5,28.61,West,270,5.8,5.8,43,0.00,CLR,,0.00,WeatherDisplay:10.37,2013-08-27 21:43:00,
2013-08-27 16:45:00,94.2,67.6,28.61,WSW,257,5.0,10.0,42,0.00,CLR,,0.00,WeatherDisplay:10.37,2013-08-27 21:45:00,
2013-08-27 16:47:00,94.1,67.5,28.61,West,270,7.6,7.6,42,0.00,CLR,,0.00,WeatherDisplay:10.37,2013-08-27 21:47:00,
2013-08-27 16:49:00,94.1,67.5,28.61,WNW,292,8.1,8.1,42,0.00,CLR,,0.00,WeatherDisplay:10.37,2013-08-27 21:49:00,
2013-08-27 16:50:00,94.1,67.5,28.61,West,270,8.1,8.1,42,0.00,CLR,,0.00,WeatherDisplay:10.37,2013-08-27 21:50:00,
2013-08-27 16:51:00,93.9,67.3,28.61,NW,315,8.1,8.1,42,0.00,CLR,,0.00,WeatherDisplay:10.37,2013-08-27 21:51:00,
2013-08-27 16:53:00,93.2,66.7,28.61,WNW,292,12.7,12.7,42,0.00,CLR,,0.00,WeatherDisplay:10.37,2013-08-27 21:53:00,
2013-08-27 16:54:00,93.0,67.2,28.61,WNW,292,8.5,8.5,43,0.00,CLR,,0.00,WeatherDisplay:10.37,2013-08-27 21:54:00,
2013-08-27 16:55:00,93.0,67.2,28.61,WSW,248,9.2,9.2,43,0.00,CLR,,0.00,WeatherDisplay:10.37,2013-08-27 21:55:00,
2013-08-27 16:56:00,93.0,67.2,28.61,WSW,248,8.1,8.1,43,0.00,CLR,,0.00,WeatherDisplay:10.37,2013-08-27 21:56:00,
2013-08-27 16:59:00,92.8,67.1,28.61,WSW,248,8.1,8.1,43,0.00,CLR,,0.00,WeatherDisplay:10.37,2013-08-27 21:59:00,
2013-08-27 17:00:00,92.8,67.1,28.61,West,270,8.1,8.1,43,0.00,CLR,,0.00,WeatherDisplay:10.37,2013-08-27 22:00:00,
2013-08-27 17:02:00,92.7,67.6,28.61,West,270,8.1,8.1,44,0.00,CLR,,0.00,WeatherDisplay:10.37,2013-08-27 22:02:00,
2013-08-27 17:04:00,92.5,67.4,28.61,WSW,248,9.2,9.2,44,0.00,CLR,,0.00,WeatherDisplay:10.37,2013-08-27 22:04:00,
2013-08-27 17:05:00,92.8,67.7,28.61,West,270,8.1,8.1,44,0.00,CLR,,0.00,WeatherDisplay:10.37,2013-08-27 22:05:00,
2013-08-27 17:07:00,92.8,67.7,28.61,West,270,3.8,3.8,44,0.00,CLR,,0.00,WeatherDisplay:10.37,2013-08-27 22:07:00,
2013-08-27 17:09:00,93.0,67.9,28.61,South,180,4.6,4.6,44,0.00,CLR,,0.00,WeatherDisplay:10.37,2013-08-27 22:09:00,
2013-08-27 17:10:00,92.8,68.4,28.64,WSW,248,5.8,5.8,45,0.00,CLR,,0.00,WeatherDisplay:10.37,2013-08-27 22:10:00,
2013-08-27 17:12:00,92.8,67.7,28.64,West,270,8.1,8.1,44,0.00,CLR,,0.00,WeatherDisplay:10.37,2013-08-27 22:12:00,
2013-08-27 17:14:00,93.0,68.5,28.64,West,270,3.5,3.5,45,0.00,CLR,,0.00,WeatherDisplay:10.37,2013-08-27 22:14:00,
2013-08-27 17:15:00,92.9,67.8,28.64,West,276,2.0,8.0,44,0.00,CLR,,0.00,WeatherDisplay:10.37,2013-08-27 22:15:00,
2013-08-27 17:17:00,93.0,68.5,28.64,SSW,202,5.4,5.4,45,0.00,CLR,,0.00,WeatherDisplay:10.37,2013-08-27 22:17:00,
2013-08-27 17:20:00,93.0,68.5,28.64,WSW,248,2.3,2.3,45,0.00,CLR,,0.00,WeatherDisplay:10.37,2013-08-27 22:20:00,
2013-08-27 17:21:00,93.4,68.2,28.64,SSW,202,2.4,2.4,44,0.00,CLR,,0.00,WeatherDisplay:10.37,2013-08-27 22:21:00,
2013-08-27 17:22:00,93.4,68.2,28.64,South,180,3.5,3.5,44,0.00,CLR,,0.00,WeatherDisplay:10.37,2013-08-27 22:22:00,
2013-08-27 17:25:00,93.4,68.2,28.64,West,270,4.6,4.6,44,0.00,CLR,,0.00,WeatherDisplay:10.37,2013-08-27 22:25:00,
2013-08-27 17:26:00,93.4,68.2,28.64,East,90,3.5,3.5,44,0.00,CLR,,0.00,WeatherDisplay:10.37,2013-08-27 22:26:00,
2013-08-27 17:28:00,93.4,68.2,28.64,SW,225,4.6,4.6,44,0.00,CLR,,0.00,WeatherDisplay:10.37,2013-08-27 22:28:00,
2013-08-27 17:30:00,93.2,68.0,28.64,SW,225,5.8,5.8,44,0.00,CLR,,0.00,WeatherDisplay:10.37,2013-08-27 22:30:00,
2013-08-27 17:31:00,93.0,67.9,28.64,West,270,5.8,5.8,44,0.00,CLR,,0.00,WeatherDisplay:10.37,2013-08-27 22:31:00,
2013-08-27 17:33:00,92.8,67.7,28.64,NW,315,10.4,10.4,44,0.00,CLR,,0.00,WeatherDisplay:10.37,2013-08-27 22:33:00,
2013-08-27 17:35:00,92.8,67.7,28.64,SW,225,5.8,5.8,44,0.00,CLR,,0.00,WeatherDisplay:10.37,2013-08-27 22:35:00,
2013-08-27 17:36:00,92.8,68.4,28.64,NNW,338,6.2,6.2,45,0.00,CLR,,0.00,WeatherDisplay:10.37,2013-08-27 22:36:00,
2013-08-27 17:38:00,92.8,68.4,28.64,NW,315,2.3,2.3,45,0.00,CLR,,0.00,WeatherDisplay:10.37,2013-08-27 22:38:00,
2013-08-27 17:40:00,92.7,68.2,28.61,NW,315,3.5,3.5,45,0.00,CLR,,0.00,WeatherDisplay:10.37,2013-08-27 22:40:00,
2013-08-27 17:41:00,92.3,68.5,28.61,West,270,2.3,2.4,46,0.00,CLR,,0.00,WeatherDisplay:10.37,2013-08-27 22:41:00,
2013-08-27 17:42:00,92.3,68.5,28.61,West,270,2.3,2.4,46,0.00,CLR,,0.00,WeatherDisplay:10.37,2013-08-27 22:42:00,
2013-08-27 17:43:00,92.1,67.7,28.61,NW,315,5.8,5.8,45,0.00,CLR,,0.00,WeatherDisplay:10.37,2013-08-27 22:43:00,
2013-08-27 17:45:00,92.1,68.4,28.61,West,270,5.8,5.8,46,0.00,CLR,,0.00,WeatherDisplay:10.37,2013-08-27 22:45:00,
2013-08-27 17:46:00,92.1,68.4,28.61,SW,225,5.8,5.8,46,0.00,CLR,,0.00,WeatherDisplay:10.37,2013-08-27 22:46:00,
2013-08-27 17:47:00,92.1,68.4,28.61,NNW,338,5.8,5.8,46,0.00,CLR,,0.00,WeatherDisplay:10.37,2013-08-27 22:47:00,
2013-08-27 17:48:00,92.3,68.5,28.61,SW,225,4.7,4.7,46,0.00,CLR,,0.00,WeatherDisplay:10.37,2013-08-27 22:48:00,
2013-08-27 17:50:00,92.1,68.4,28.61,NNW,338,5.6,5.6,46,0.00,CLR,,0.00,WeatherDisplay:10.37,2013-08-27 22:50:00,
2013-08-27 17:51:00,92.1,68.4,28.61,West,270,5.8,5.8,46,0.00,CLR,,0.00,WeatherDisplay:10.37,2013-08-27 22:51:00,
2013-08-27 17:52:00,92.1,68.4,28.61,West,270,5.8,5.8,46,0.00,CLR,,0.00,WeatherDisplay:10.37,2013-08-27 22:52:00,
2013-08-27 17:53:00,92.1,68.4,28.61,WNW,292,4.6,4.6,46,0.00,CLR,,0.00,WeatherDisplay:10.37,2013-08-27 22:53:00,
2013-08-27 17:55:00,92.1,68.4,28.64,WSW,248,3.5,3.5,46,0.00,CLR,,0.00,WeatherDisplay:10.37,2013-08-27 22:55:00,
2013-08-27 17:56:00,92.3,68.5,28.64,NW,315,3.5,3.5,46,0.00,CLR,,0.00,WeatherDisplay:10.37,2013-08-27 22:56:00,
2013-08-27 17:57:00,92.3,68.5,28.64,SSW,202,4.9,4.9,46,0.00,CLR,,0.00,WeatherDisplay:10.37,2013-08-27 22:57:00,
2013-08-27 17:59:00,91.9,68.2,28.64,West,270,4.6,4.6,46,0.00,CLR,,0.00,WeatherDisplay:10.37,2013-08-27 22:59:00,
2013-08-27 18:01:00,91.9,68.2,28.64,SW,225,3.8,3.8,46,0.00,CLR,,0.00,WeatherDisplay:10.37,2013-08-27 23:01:00,
2013-08-27 18:02:00,91.8,68.0,28.64,West,270,3.5,3.5,46,0.00,CLR,,0.00,WeatherDisplay:10.37,2013-08-27 23:02:00,
2013-08-27 18:04:00,91.9,68.2,28.64,West,270,2.3,2.4,46,0.00,CLR,,0.00,WeatherDisplay:10.37,2013-08-27 23:04:00,
2013-08-27 18:06:00,92.1,68.4,28.64,West,270,3.5,3.5,46,0.00,CLR,,0.00,WeatherDisplay:10.37,2013-08-27 23:06:00,
2013-08-27 18:07:00,91.8,68.0,28.64,West,270,3.5,3.5,46,0.00,CLR,,0.00,WeatherDisplay:10.37,2013-08-27 23:07:00,
2013-08-27 18:09:00,91.9,68.2,28.64,West,270,4.6,4.6,46,0.00,CLR,,0.00,WeatherDisplay:10.37,2013-08-27 23:09:00,
2013-08-27 18:11:00,91.8,68.0,28.64,SSW,202,10.4,10.4,46,0.00,CLR,,0.00,WeatherDisplay:10.37,2013-08-27 23:11:00,
2013-08-27 18:12:00,91.6,67.9,28.64,NW,315,4.6,4.6,46,0.00,CLR,,0.00,WeatherDisplay:10.37,2013-08-27 23:12:00,
2013-08-27 18:14:00,91.4,67.7,28.64,WSW,248,4.6,4.6,46,0.00,CLR,,0.00,WeatherDisplay:10.37,2013-08-27 23:14:00,
2013-08-27 18:16:00,91.4,68.3,28.64,West,270,2.0,2.0,47,0.00,CLR,,0.00,WeatherDisplay:10.37,2013-08-27 23:16:00,
2013-08-27 18:17:00,91.2,68.2,28.64,West,270,5.8,5.8,47,0.00,CLR,,0.00,WeatherDisplay:10.37,2013-08-27 23:17:00,
2013-08-27 18:18:00,91.2,68.2,28.64,WSW,248,6.9,6.9,47,0.00,CLR,,0.00,WeatherDisplay:10.37,2013-08-27 23:18:00,
2013-08-27 18:20:00,91.2,68.2,28.64,West,270,6.9,6.9,47,0.00,CLR,,0.00,WeatherDisplay:10.37,2013-08-27 23:20:00,
2013-08-27 18:21:00,91.2,68.8,28.64,NNW,338,3.5,3.5,48,0.00,CLR,,0.00,WeatherDisplay:10.37,2013-08-27 23:21:00,
2013-08-27 18:22:00,91.2,68.8,28.64,West,270,3.5,3.5,48,0.00,CLR,,0.00,WeatherDisplay:10.37,2013-08-27 23:22:00,
2013-08-27 18:23:00,91.0,68.6,28.64,SW,225,3.5,3.5,48,0.00,CLR,,0.00,WeatherDisplay:10.37,2013-08-27 23:23:00,
2013-08-27 18:25:00,90.7,68.3,28.61,SW,225,5.8,5.8,48,0.00,CLR,,0.00,WeatherDisplay:10.37,2013-08-27 23:25:00,
2013-08-27 18:26:00,90.7,68.9,28.61,NW,315,2.3,2.3,49,0.00,CLR,,0.00,WeatherDisplay:10.37,2013-08-27 23:26:00,
2013-08-27 18:27:00,90.7,68.9,28.61,SSW,202,3.3,3.3,49,0.00,CLR,,0.00,WeatherDisplay:10.37,2013-08-27 23:27:00,
2013-08-27 18:28:00,90.7,68.9,28.61,SW,225,3.5,3.5,49,0.00,CLR,,0.00,WeatherDisplay:10.37,2013-08-27 23:28:00,
2013-08-27 18:30:00,91.0,69.2,28.61,WNW,292,3.5,3.5,49,0.00,CLR,,0.00,WeatherDisplay:10.37,2013-08-27 23:30:00,
2013-08-27 18:31:00,90.9,69.1,28.61,WSW,248,2.2,2.2,49,0.00,CLR,,0.00,WeatherDisplay:10.37,2013-08-27 23:31:00,
2013-08-27 18:32:00,91.0,69.2,28.61,WSW,248,3.6,3.6,49,0.00,CLR,,0.00,WeatherDisplay:10.37,2013-08-27 23:32:00,
2013-08-27 18:33:00,91.0,69.2,28.61,NW,315,4.6,4.6,49,0.00,CLR,,0.00,WeatherDisplay:10.37,2013-08-27 23:33:00,
2013-08-27 18:35:00,90.9,69.1,28.61,West,270,4.6,4.6,49,0.00,CLR,,0.00,WeatherDisplay:10.37,2013-08-27 23:35:00,
2013-08-27 18:37:00,90.9,69.1,28.61,North,0,3.5,3.5,49,0.00,CLR,,0.00,WeatherDisplay:10.37,2013-08-27 23:37:00,
2013-08-27 18:38:00,90.9,69.7,28.61,ESE,112,2.4,2.4,50,0.00,CLR,,0.00,WeatherDisplay:10.37,2013-08-27 23:38:00,
2013-08-27 18:39:00,90.9,69.7,28.61,West,270,4.6,4.6,50,0.00,CLR,,0.00,WeatherDisplay:10.37,2013-08-27 23:39:00,
2013-08-27 18:40:00,90.7,68.9,28.64,West,270,4.6,4.6,49,0.00,CLR,,0.00,WeatherDisplay:10.37,2013-08-27 23:40:00,
2013-08-27 18:42:00,90.7,69.5,28.64,WNW,292,2.3,2.4,50,0.00,CLR,,0.00,WeatherDisplay:10.37,2013-08-27 23:42:00,
2013-08-27 18:43:00,90.7,69.5,28.64,West,270,3.5,3.5,50,0.00,CLR,,0.00,WeatherDisplay:10.37,2013-08-27 23:43:00,
2013-08-27 18:44:00,90.7,69.5,28.64,WSW,248,2.3,2.3,50,0.00,CLR,,0.00,WeatherDisplay:10.37,2013-08-27 23:44:00,
2013-08-27 18:45:00,90.5,69.3,28.64,NNE,22,1.6,0.0,50,0.00,CLR,,0.00,WeatherDisplay:10.37,2013-08-27 23:45:00,
2013-08-27 18:47:00,90.3,69.2,28.64,SSW,202,4.6,4.6,50,0.00,CLR,,0.00,WeatherDisplay:10.37,2013-08-27 23:47:00,
2013-08-27 18:48:00,90.1,69.6,28.64,SW,225,4.6,4.6,51,0.00,CLR,,0.00,WeatherDisplay:10.37,2013-08-27 23:48:00,
2013-08-27 18:49:00,90.1,69.6,28.64,SW,225,2.3,2.3,51,0.00,CLR,,0.00,WeatherDisplay:10.37,2013-08-27 23:49:00,
2013-08-27 18:51:00,90.0,68.8,28.64,WNW,292,0.0,0.0,50,0.00,CLR,,0.00,WeatherDisplay:10.37,2013-08-27 23:51:00,
2013-08-27 18:53:00,90.0,69.4,28.64,WSW,248,1.2,0.0,51,0.00,CLR,,0.00,WeatherDisplay:10.37,2013-08-27 23:53:00,
2013-08-27 18:54:00,90.0,69.4,28.64,SW,225,1.2,0.0,51,0.00,CLR,,0.00,WeatherDisplay:10.37,2013-08-27 23:54:00,
2013-08-27 18:56:00,89.8,69.2,28.64,NW,315,3.5,3.5,51,0.00,CLR,,0.00,WeatherDisplay:10.37,2013-08-27 23:56:00,
2013-08-27 18:58:00,89.4,69.5,28.64,NW,315,0.0,0.0,52,0.00,CLR,,0.00,WeatherDisplay:10.37,2013-08-27 23:58:00,
2013-08-27 18:59:00,89.4,69.5,28.64,WSW,248,0.0,0.0,52,0.00,CLR,,0.00,WeatherDisplay:10.37,2013-08-27 23:59:00,
2013-08-27 19:01:00,89.1,69.7,28.64,West,270,2.0,0.0,53,0.00,CLR,,0.00,WeatherDisplay:10.37,2013-08-28 00:01:00,
2013-08-27 19:03:00,88.7,69.4,28.64,West,270,2.3,2.3,53,0.00,CLR,,0.00,WeatherDisplay:10.37,2013-08-28 00:03:00,
2013-08-27 19:04:00,88.7,69.4,28.64,West,270,2.3,0.0,53,0.00,CLR,,0.00,WeatherDisplay:10.37,2013-08-28 00:04:00,
2013-08-27 19:06:00,88.3,69.0,28.64,WSW,248,0.0,0.0,53,0.00,CLR,,0.00,WeatherDisplay:10.37,2013-08-28 00:06:00,
2013-08-27 19:08:00,88.2,69.4,28.64,SW,225,0.9,0.0,54,0.00,CLR,,0.00,WeatherDisplay:10.37,2013-08-28 00:08:00,
2013-08-27 19:09:00,88.0,69.3,28.64,West,270,1.2,0.0,54,0.00,CLR,,0.00,WeatherDisplay:10.37,2013-08-28 00:09:00,
2013-08-27 19:11:00,88.0,69.8,28.64,South,180,1.2,0.0,55,0.00,CLR,,0.00,WeatherDisplay:10.37,2013-08-28 00:11:00,
2013-08-27 19:13:00,87.4,69.3,28.64,West,270,0.0,0.0,55,0.00,CLR,,0.00,WeatherDisplay:10.37,2013-08-28 00:13:00,
2013-08-27 19:14:00,87.4,69.3,28.64,WSW,248,0.0,0.0,55,0.00,CLR,,0.00,WeatherDisplay:10.37,2013-08-28 00:14:00,
2013-08-27 19:16:00,87.3,69.6,28.64,WSW,248,0.0,0.0,56,0.00,CLR,,0.00,WeatherDisplay:10.37,2013-08-28 00:16:00,
2013-08-27 19:19:00,87.1,70.0,28.64,WSW,248,1.2,1.2,57,0.00,CLR,,0.00,WeatherDisplay:10.37,2013-08-28 00:19:00,
2013-08-27 19:20:00,87.1,70.0,28.64,West,270,1.2,1.2,57,0.00,CLR,,0.00,WeatherDisplay:10.37,2013-08-28 00:20:00,
2013-08-27 19:22:00,86.9,70.3,28.64,WSW,248,0.0,0.0,58,0.00,CLR,,0.00,WeatherDisplay:10.37,2013-08-28 00:22:00,
2013-08-27 19:24:00,86.5,70.0,28.64,WSW,248,0.0,0.0,58,0.00,CLR,,0.00,WeatherDisplay:10.37,2013-08-28 00:24:00,
2013-08-27 19:25:00,86.6,70.0,28.64,WSW,253,0.0,0.0,58,0.00,CLR,,0.00,WeatherDisplay:10.37,2013-08-28 00:25:00,
2013-08-27 19:27:00,86.4,69.8,28.64,WSW,248,0.0,0.0,58,0.00,CLR,,0.00,WeatherDisplay:10.37,2013-08-28 00:27:00,
2013-08-27 19:29:00,86.0,69.5,28.64,WSW,248,0.0,0.0,58,0.00,CLR,,0.00,WeatherDisplay:10.37,2013-08-28 00:29:00,
2013-08-27 19:30:00,86.1,70.1,28.64,WSW,249,0.0,2.0,59,0.00,CLR,,0.00,WeatherDisplay:10.37,2013-08-28 00:30:00,
2013-08-27 19:32:00,85.8,70.3,28.64,West,270,1.2,1.2,60,0.00,CLR,,0.00,WeatherDisplay:10.37,2013-08-28 00:32:00,
2013-08-27 19:34:00,85.5,70.5,28.64,West,270,2.3,2.3,61,0.00,CLR,,0.00,WeatherDisplay:10.37,2013-08-28 00:34:00,
2013-08-27 19:35:00,85.5,70.5,28.64,West,270,2.3,2.3,61,0.00,CLR,,0.00,WeatherDisplay:10.37,2013-08-28 00:35:00,
2013-08-27 19:37:00,85.1,70.1,28.64,West,270,1.4,1.4,61,0.00,CLR,,0.00,WeatherDisplay:10.37,2013-08-28 00:37:00,
2013-08-27 19:39:00,84.9,70.4,28.64,SW,225,1.2,0.0,62,0.00,CLR,,0.00,WeatherDisplay:10.37,2013-08-28 00:39:00,
2013-08-27 19:40:00,84.7,70.7,28.64,SW,225,0.0,0.0,63,0.00,CLR,,0.00,WeatherDisplay:10.37,2013-08-28 00:40:00,
2013-08-27 19:41:00,84.6,70.6,28.64,West,270,1.6,1.6,63,0.00,CLR,,0.00,WeatherDisplay:10.37,2013-08-28 00:41:00,
2013-08-27 19:42:00,84.4,70.4,28.64,WSW,248,2.3,2.3,63,0.00,CLR,,0.00,WeatherDisplay:10.37,2013-08-28 00:42:00,
2013-08-27 19:45:00,84.2,70.7,28.64,WSW,248,2.6,2.6,64,0.00,CLR,,0.00,WeatherDisplay:10.37,2013-08-28 00:45:00,
2013-08-27 19:46:00,84.0,71.4,28.64,West,270,4.0,4.0,66,0.00,CLR,,0.00,WeatherDisplay:10.37,2013-08-28 00:46:00,
2013-08-27 19:48:00,83.8,71.7,28.64,West,270,4.6,4.6,67,0.00,CLR,,0.00,WeatherDisplay:10.37,2013-08-28 00:48:00,
2013-08-27 19:50:00,83.7,71.5,28.64,WSW,248,2.3,2.3,67,0.00,CLR,,0.00,WeatherDisplay:10.37,2013-08-28 00:50:00,
2013-08-27 19:51:00,83.5,71.4,28.64,WSW,248,2.3,2.3,67,0.00,CLR,,0.00,WeatherDisplay:10.37,2013-08-28 00:51:00,
2013-08-27 19:53:00,83.3,71.2,28.64,WSW,248,2.3,2.3,67,0.00,CLR,,0.00,WeatherDisplay:10.37,2013-08-28 00:53:00,
2013-08-27 19:55:00,83.1,71.9,28.64,WNW,292,3.5,3.5,69,0.00,CLR,,0.00,WeatherDisplay:10.37,2013-08-28 00:55:00,
2013-08-27 19:56:00,82.9,71.7,28.64,WNW,292,3.5,3.5,69,0.00,CLR,,0.00,WeatherDisplay:10.37,2013-08-28 00:56:00,
2013-08-27 19:58:00,82.8,71.5,28.64,WNW,292,3.5,3.5,69,0.00,CLR,,0.00,WeatherDisplay:10.37,2013-08-28 00:58:00,
2013-08-27 20:00:00,82.8,71.5,28.64,SW,225,3.5,3.5,69,0.00,CLR,,0.00,WeatherDisplay:10.37,2013-08-28 01:00:00,
2013-08-27 20:01:00,82.8,71.5,28.64,SW,225,3.5,3.5,69,0.00,CLR,,0.00,WeatherDisplay:10.37,2013-08-28 01:01:00,
2013-08-27 20:02:00,82.4,71.6,28.64,West,270,2.3,2.3,70,0.00,CLR,,0.00,WeatherDisplay:10.37,2013-08-28 01:02:00,
2013-08-27 20:03:00,82.2,71.5,28.64,West,270,2.3,2.3,70,0.00,CLR,,0.00,WeatherDisplay:10.37,2013-08-28 01:03:00,
2013-08-27 20:05:00,82.2,71.9,28.64,WSW,248,2.3,2.3,71,0.00,CLR,,0.00,WeatherDisplay:10.37,2013-08-28 01:05:00,
2013-08-27 20:06:00,82.2,71.9,28.64,SSW,202,1.2,0.0,71,0.00,CLR,,0.00,WeatherDisplay:10.37,2013-08-28 01:06:00,
2013-08-27 20:07:00,82.0,71.7,28.64,West,270,1.4,1.4,71,0.00,CLR,,0.00,WeatherDisplay:10.37,2013-08-28 01:07:00,
2013-08-27 20:09:00,82.0,71.7,28.64,WNW,292,0.0,0.0,71,0.00,CLR,,0.00,WeatherDisplay:10.37,2013-08-28 01:09:00,
2013-08-27 20:10:00,81.9,71.5,28.64,WSW,248,0.0,0.0,71,0.00,CLR,,0.00,WeatherDisplay:10.37,2013-08-28 01:10:00,
2013-08-27 20:11:00,81.9,71.5,28.64,WSW,248,0.0,0.0,71,0.00,CLR,,0.00,WeatherDisplay:10.37,2013-08-28 01:11:00,
2013-08-27 20:12:00,81.9,71.5,28.64,SW,225,0.0,0.0,71,0.00,CLR,,0.00,WeatherDisplay:10.37,2013-08-28 01:12:00,
2013-08-27 20:15:00,81.7,71.4,28.64,SW,225,1.2,0.0,71,0.00,CLR,,0.00,WeatherDisplay:10.37,2013-08-28 01:15:00,
2013-08-27 20:16:00,81.5,71.2,28.64,WSW,248,0.0,0.0,71,0.00,CLR,,0.00,WeatherDisplay:10.37,2013-08-28 01:16:00,
2013-08-27 20:18:00,81.3,71.4,28.64,West,270,0.0,0.0,72,0.00,CLR,,0.00,WeatherDisplay:10.37,2013-08-28 01:18:00,
2013-08-27 20:20:00,81.3,71.4,28.64,West,270,2.3,2.3,72,0.00,CLR,,0.00,WeatherDisplay:10.37,2013-08-28 01:20:00,
2013-08-27 20:21:00,81.3,71.4,28.64,West,270,1.2,1.2,72,0.00,CLR,,0.00,WeatherDisplay:10.37,2013-08-28 01:21:00,
2013-08-27 20:23:00,81.1,71.7,28.64,West,270,3.5,3.5,73,0.00,CLR,,0.00,WeatherDisplay:10.37,2013-08-28 01:23:00,
2013-08-27 20:26:00,81.1,72.1,28.64,West,270,2.3,2.3,74,0.00,CLR,,0.00,WeatherDisplay:10.37,2013-08-28 01:26:00,
2013-08-27 20:27:00,81.0,71.9,28.64,West,270,2.4,2.4,74,0.00,CLR,,0.00,WeatherDisplay:10.37,2013-08-28 01:27:00,
2013-08-27 20:28:00,81.0,72.3,28.64,West,270,4.6,4.6,75,0.00,CLR,,0.00,WeatherDisplay:10.37,2013-08-28 01:28:00,
2013-08-27 20:31:00,80.8,72.1,28.64,WNW,292,1.4,1.4,75,0.00,CLR,,0.00,WeatherDisplay:10.37,2013-08-28 01:31:00,
2013-08-27 20:32:00,80.6,71.9,28.64,West,270,2.3,2.3,75,0.00,CLR,,0.00,WeatherDisplay:10.37,2013-08-28 01:32:00,
2013-08-27 20:33:00,80.6,71.9,28.64,WNW,292,1.2,0.0,75,0.00,CLR,,0.00,WeatherDisplay:10.37,2013-08-28 01:33:00,
2013-08-27 20:36:00,80.4,71.8,28.64,WNW,292,1.2,0.0,75,0.00,CLR,,0.00,WeatherDisplay:10.37,2013-08-28 01:36:00,
2013-08-27 20:37:00,80.2,72.0,28.64,WNW,292,0.0,0.0,76,0.00,CLR,,0.00,WeatherDisplay:10.37,2013-08-28 01:37:00,
2013-08-27 20:38:00,80.2,72.0,28.64,WNW,292,0.0,0.0,76,0.00,CLR,,0.00,WeatherDisplay:10.37,2013-08-28 01:38:00,
2013-08-27 20:41:00,79.7,71.1,28.64,NW,315,1.2,0.0,75,0.00,CLR,,0.00,WeatherDisplay:10.37,2013-08-28 01:41:00,
2013-08-27 20:42:00,79.7,71.5,28.64,NW,315,1.2,0.0,76,0.00,CLR,,0.00,WeatherDisplay:10.37,2013-08-28 01:42:00,
2013-08-27 20:43:00,79.5,71.3,28.64,NW,315,0.0,0.0,76,0.00,CLR,,0.00,WeatherDisplay:10.37,2013-08-28 01:43:00,
2013-08-27 20:44:00,79.5,71.7,28.64,NW,315,0.0,0.0,77,0.00,CLR,,0.00,WeatherDisplay:10.37,2013-08-28 01:44:00,
2013-08-27 20:46:00,79.3,71.5,28.64,NW,315,1.4,1.4,77,0.00,CLR,,0.00,WeatherDisplay:10.37,2013-08-28 01:46:00,
2013-08-27 20:47:00,79.2,71.3,28.64,NW,315,1.2,1.2,77,0.00,CLR,,0.00,WeatherDisplay:10.37,2013-08-28 01:47:00,
2013-08-27 20:49:00,79.2,71.3,28.64,NW,315,1.4,0.0,77,0.00,CLR,,0.00,WeatherDisplay:10.37,2013-08-28 01:49:00,
2013-08-27 20:51:00,79.0,71.5,28.64,NW,315,1.4,1.4,78,0.00,CLR,,0.00,WeatherDisplay:10.37,2013-08-28 01:51:00,
2013-08-27 20:52:00,79.0,71.2,28.64,West,270,1.4,1.4,77,0.00,CLR,,0.00,WeatherDisplay:10.37,2013-08-28 01:52:00,
2013-08-27 20:54:00,79.0,71.2,28.64,West,270,1.4,1.4,77,0.00,CLR,,0.00,WeatherDisplay:10.37,2013-08-28 01:54:00,
2013-08-27 20:55:00,79.0,71.5,28.64,West,270,1.4,1.4,78,0.00,CLR,,0.00,WeatherDisplay:10.37,2013-08-28 01:55:00,
2013-08-27 20:56:00,79.0,71.5,28.64,WNW,292,1.2,1.2,78,0.00,CLR,,0.00,WeatherDisplay:10.37,2013-08-28 01:56:00,
2013-08-27 20:57:00,78.8,71.4,28.64,WNW,292,1.2,0.0,78,0.00,CLR,,0.00,WeatherDisplay:10.37,2013-08-28 01:57:00,
2013-08-27 20:59:00,78.8,71.4,28.64,WNW,292,0.0,0.0,78,0.00,CLR,,0.00,WeatherDisplay:10.37,2013-08-28 01:59:00,
2013-08-27 21:00:00,78.8,71.4,28.64,WNW,292,0.0,0.0,78,0.00,CLR,,0.00,WeatherDisplay:10.37,2013-08-28 02:00:00,
2013-08-27 21:01:00,78.8,71.4,28.64,WNW,292,0.0,0.0,78,0.00,CLR,,0.00,WeatherDisplay:10.37,2013-08-28 02:01:00,
2013-08-27 21:03:00,78.8,71.7,28.64,WNW,292,0.0,0.0,79,0.00,CLR,,0.00,WeatherDisplay:10.37,2013-08-28 02:03:00,
2013-08-27 21:05:00,78.6,71.6,28.64,WNW,292,0.0,0.0,79,0.00,CLR,,0.00,WeatherDisplay:10.37,2013-08-28 02:05:00,
2013-08-27 21:06:00,78.6,71.6,28.64,WNW,292,0.0,0.0,79,0.00,CLR,,0.00,WeatherDisplay:10.37,2013-08-28 02:06:00,
2013-08-27 21:08:00,78.6,71.6,28.64,WNW,292,0.0,0.0,79,0.00,CLR,,0.00,WeatherDisplay:10.37,2013-08-28 02:08:00,
2013-08-27 21:10:00,78.4,71.4,28.64,WNW,292,0.0,0.0,79,0.00,CLR,,0.00,WeatherDisplay:10.37,2013-08-28 02:10:00,
2013-08-27 21:11:00,78.4,71.4,28.64,WNW,292,0.0,0.0,79,0.00,CLR,,0.00,WeatherDisplay:10.37,2013-08-28 02:11:00,
2013-08-27 21:13:00,78.3,71.6,28.64,WNW,292,0.0,0.0,80,0.00,CLR,,0.00,WeatherDisplay:10.37,2013-08-28 02:13:00,
2013-08-27 21:15:00,78.1,71.4,28.64,WNW,292,0.0,0.0,80,0.00,CLR,,0.00,WeatherDisplay:10.37,2013-08-28 02:15:00,
2013-08-27 21:17:00,78.1,71.4,28.64,WNW,292,0.0,0.0,80,0.00,CLR,,0.00,WeatherDisplay:10.37,2013-08-28 02:17:00,
2013-08-27 21:18:00,78.1,71.4,28.64,WNW,292,0.0,0.0,80,0.00,CLR,,0.00,WeatherDisplay:10.37,2013-08-28 02:18:00,
2013-08-27 21:21:00,77.9,71.6,28.64,WNW,292,0.0,0.0,81,0.00,CLR,,0.00,WeatherDisplay:10.37,2013-08-28 02:21:00,
2013-08-27 21:22:00,77.9,71.6,28.64,WNW,292,0.0,0.0,81,0.00,CLR,,0.00,WeatherDisplay:10.37,2013-08-28 02:22:00,
2013-08-27 21:23:00,77.7,71.4,28.64,WNW,292,0.0,0.0,81,0.00,CLR,,0.00,WeatherDisplay:10.37,2013-08-28 02:23:00,
2013-08-27 21:26:00,77.7,71.4,28.64,WNW,292,0.0,0.0,81,0.00,CLR,,0.00,WeatherDisplay:10.37,2013-08-28 02:26:00,
2013-08-27 21:27:00,77.7,71.4,28.64,NW,315,2.0,2.0,81,0.00,CLR,,0.00,WeatherDisplay:10.37,2013-08-28 02:27:00,
2013-08-27 21:28:00,77.7,71.4,28.64,NW,315,2.3,2.3,81,0.00,CLR,,0.00,WeatherDisplay:10.37,2013-08-28 02:28:00,
2013-08-27 21:29:00,77.5,71.2,28.64,West,270,1.2,1.2,81,0.00,CLR,,0.00,WeatherDisplay:10.37,2013-08-28 02:29:00,
2013-08-27 21:31:00,77.5,71.6,28.64,West,270,1.2,1.2,82,0.00,CLR,,0.00,WeatherDisplay:10.37,2013-08-28 02:31:00,
2013-08-27 21:33:00,77.5,71.6,28.64,West,270,2.3,0.0,82,0.00,CLR,,0.00,WeatherDisplay:10.37,2013-08-28 02:33:00,
2013-08-27 21:34:00,77.5,71.6,28.64,West,270,0.0,0.0,82,0.00,CLR,,0.00,WeatherDisplay:10.37,2013-08-28 02:34:00,
2013-08-27 21:37:00,77.5,72.0,28.64,NW,315,0.0,0.0,83,0.00,CLR,,0.00,WeatherDisplay:10.37,2013-08-28 02:37:00,
2013-08-27 21:38:00,77.5,72.0,28.64,NW,315,0.0,0.0,83,0.00,CLR,,0.00,WeatherDisplay:10.37,2013-08-28 02:38:00,
2013-08-27 21:39:00,77.5,72.0,28.64,West,270,0.9,0.0,83,0.00,CLR,,0.00,WeatherDisplay:10.37,2013-08-28 02:39:00,
2013-08-27 21:40:00,77.5,71.6,28.67,West,270,1.2,0.0,82,0.00,CLR,,0.00,WeatherDisplay:10.37,2013-08-28 02:40:00,
2013-08-27 21:43:00,77.4,71.8,28.67,NW,315,0.0,0.0,83,0.00,CLR,,0.00,WeatherDisplay:10.37,2013-08-28 02:43:00,
2013-08-27 21:44:00,77.4,72.1,28.67,NW,315,0.0,0.0,84,0.00,CLR,,0.00,WeatherDisplay:10.37,2013-08-28 02:44:00,
2013-08-27 21:45:00,77.4,72.1,28.67,NW,315,0.0,0.0,84,0.00,CLR,,0.00,WeatherDisplay:10.37,2013-08-28 02:45:00,
2013-08-27 21:48:00,77.4,72.1,28.67,NW,315,0.0,0.0,84,0.00,CLR,,0.00,WeatherDisplay:10.37,2013-08-28 02:48:00,
2013-08-27 21:49:00,77.4,72.1,28.67,NW,315,0.0,0.0,84,0.00,CLR,,0.00,WeatherDisplay:10.37,2013-08-28 02:49:00,
2013-08-27 21:50:00,77.4,72.1,28.67,West,270,1.2,0.0,84,0.00,CLR,,0.00,WeatherDisplay:10.37,2013-08-28 02:50:00,
2013-08-27 21:54:00,77.2,72.3,28.67,WNW,292,0.0,0.0,85,0.00,CLR,,0.00,WeatherDisplay:10.37,2013-08-28 02:54:00,
2013-08-27 21:56:00,77.2,72.0,28.67,WNW,292,0.0,0.0,84,0.00,CLR,,0.00,WeatherDisplay:10.37,2013-08-28 02:56:00,
2013-08-27 21:59:00,77.2,72.3,28.67,WNW,292,0.0,0.0,85,0.00,CLR,,0.00,WeatherDisplay:10.37,2013-08-28 02:59:00,
2013-08-27 22:00:00,77.2,72.3,28.67,WNW,299,0.0,0.0,85,0.00,CLR,,0.00,WeatherDisplay:10.37,2013-08-28 03:00:00,
2013-08-27 22:01:00,77.2,72.3,28.67,WNW,292,0.0,0.0,85,0.00,CLR,,0.00,WeatherDisplay:10.37,2013-08-28 03:01:00,
2013-08-27 22:02:00,77.2,72.3,28.67,WNW,292,0.0,0.0,85,0.00,CLR,,0.00,WeatherDisplay:10.37,2013-08-28 03:02:00,
2013-08-27 22:04:00,77.2,72.3,28.67,WNW,292,0.0,0.0,85,0.00,CLR,,0.00,WeatherDisplay:10.37,2013-08-28 03:04:00,
2013-08-27 22:05:00,77.2,72.3,28.67,WNW,292,0.0,0.0,85,0.00,CLR,,0.00,WeatherDisplay:10.37,2013-08-28 03:05:00,
2013-08-27 22:07:00,77.0,72.1,28.67,WNW,292,0.0,0.0,85,0.00,CLR,,0.00,WeatherDisplay:10.37,2013-08-28 03:07:00,
2013-08-27 22:09:00,77.0,72.1,28.67,WNW,292,0.0,0.0,85,0.00,CLR,,0.00,WeatherDisplay:10.37,2013-08-28 03:09:00,
2013-08-27 22:10:00,77.0,72.1,28.67,WNW,292,0.0,0.0,85,0.00,CLR,,0.00,WeatherDisplay:10.37,2013-08-28 03:10:00,
2013-08-27 22:11:00,77.0,72.1,28.67,WNW,292,0.0,0.0,85,0.00,CLR,,0.00,WeatherDisplay:10.37,2013-08-28 03:11:00,
2013-08-27 22:12:00,77.0,72.1,28.67,WNW,292,0.0,0.0,85,0.00,CLR,,0.00,WeatherDisplay:10.37,2013-08-28 03:12:00,
2013-08-27 22:13:00,77.0,72.1,28.67,WNW,292,0.0,0.0,85,0.00,CLR,,0.00,WeatherDisplay:10.37,2013-08-28 03:13:00,
2013-08-27 22:14:00,77.0,72.5,28.67,WNW,292,0.0,0.0,86,0.00,CLR,,0.00,WeatherDisplay:10.37,2013-08-28 03:14:00,
2013-08-27 22:15:00,77.0,72.5,28.67,WNW,292,0.0,0.0,86,0.00,CLR,,0.00,WeatherDisplay:10.37,2013-08-28 03:15:00,
2013-08-27 22:16:00,77.0,72.5,28.67,WNW,292,0.0,0.0,86,0.00,CLR,,0.00,WeatherDisplay:10.37,2013-08-28 03:16:00,
2013-08-27 22:18:00,77.0,72.5,28.67,WNW,292,0.0,0.0,86,0.00,CLR,,0.00,WeatherDisplay:10.37,2013-08-28 03:18:00,
2013-08-27 22:19:00,77.0,72.1,28.67,WNW,292,1.2,0.0,85,0.00,CLR,,0.00,WeatherDisplay:10.37,2013-08-28 03:19:00,
2013-08-27 22:20:00,77.0,72.1,28.67,WNW,292,1.2,0.0,85,0.00,CLR,,0.00,WeatherDisplay:10.37,2013-08-28 03:20:00,
2013-08-27 22:22:00,77.0,72.1,28.67,WNW,292,0.0,0.0,85,0.00,CLR,,0.00,WeatherDisplay:10.37,2013-08-28 03:22:00,
2013-08-27 22:23:00,77.0,72.5,28.67,West,270,0.0,0.0,86,0.00,CLR,,0.00,WeatherDisplay:10.37,2013-08-28 03:23:00,
2013-08-27 22:25:00,77.0,72.1,28.67,WNW,285,0.0,0.0,85,0.00,CLR,,0.00,WeatherDisplay:10.37,2013-08-28 03:25:00,
2013-08-27 22:27:00,76.8,72.0,28.67,NW,315,0.0,0.0,85,0.00,CLR,,0.00,WeatherDisplay:10.37,2013-08-28 03:27:00,
2013-08-27 22:28:00,76.8,72.3,28.67,NW,315,0.0,0.0,86,0.00,CLR,,0.00,WeatherDisplay:10.37,2013-08-28 03:28:00,
2013-08-27 22:29:00,76.8,72.3,28.67,NW,315,0.0,0.0,86,0.00,CLR,,0.00,WeatherDisplay:10.37,2013-08-28 03:29:00,
2013-08-27 22:30:00,76.8,72.7,28.67,NW,315,0.0,0.0,87,0.00,CLR,,0.00,WeatherDisplay:10.37,2013-08-28 03:30:00,
2013-08-27 22:32:00,76.6,72.1,28.67,NW,315,1.4,1.4,86,0.00,CLR,,0.00,WeatherDisplay:10.37,2013-08-28 03:32:00,
2013-08-27 22:33:00,76.6,72.1,28.67,NW,315,1.2,1.2,86,0.00,CLR,,0.00,WeatherDisplay:10.37,2013-08-28 03:33:00,
2013-08-27 22:35:00,76.6,72.1,28.67,NW,315,1.2,1.2,86,0.00,CLR,,0.00,WeatherDisplay:10.37,2013-08-28 03:35:00,
2013-08-27 22:37:00,76.6,72.1,28.67,NW,315,0.0,0.0,86,0.00,CLR,,0.00,WeatherDisplay:10.37,2013-08-28 03:37:00,
2013-08-27 22:39:00,76.6,72.1,28.67,West,270,0.0,0.0,86,0.00,CLR,,0.00,WeatherDisplay:10.37,2013-08-28 03:39:00,
2013-08-27 22:40:00,76.6,72.1,28.67,West,270,0.0,0.0,86,0.00,CLR,,0.00,WeatherDisplay:10.37,2013-08-28 03:40:00,
2013-08-27 22:43:00,76.8,72.7,28.67,West,270,0.0,0.0,87,0.00,CLR,,0.00,WeatherDisplay:10.37,2013-08-28 03:43:00,
2013-08-27 22:44:00,76.8,72.7,28.67,WNW,292,0.0,0.0,87,0.00,CLR,,0.00,WeatherDisplay:10.37,2013-08-28 03:44:00,
2013-08-27 22:45:00,76.8,72.7,28.67,WNW,292,0.0,0.0,87,0.00,CLR,,0.00,WeatherDisplay:10.37,2013-08-28 03:45:00,
2013-08-27 22:46:00,76.8,72.7,28.67,NW,315,0.0,0.0,87,0.00,CLR,,0.00,WeatherDisplay:10.37,2013-08-28 03:46:00,
2013-08-27 22:48:00,76.6,72.5,28.67,NW,315,0.0,0.0,87,0.00,CLR,,0.00,WeatherDisplay:10.37,2013-08-28 03:48:00,
2013-08-27 22:50:00,76.6,72.5,28.67,NW,315,0.0,0.0,87,0.00,CLR,,0.00,WeatherDisplay:10.37,2013-08-28 03:50:00,
2013-08-27 22:51:00,76.6,72.5,28.67,NW,315,0.0,0.0,87,0.00,CLR,,0.00,WeatherDisplay:10.37,2013-08-28 03:51:00,
2013-08-27 22:52:00,76.6,72.5,28.67,NW,315,0.0,0.0,87,0.00,CLR,,0.00,WeatherDisplay:10.37,2013-08-28 03:52:00,
2013-08-27 22:53:00,76.5,72.3,28.67,NW,315,0.0,0.0,87,0.00,CLR,,0.00,WeatherDisplay:10.37,2013-08-28 03:53:00,
2013-08-27 22:55:00,76.5,72.3,28.64,NW,315,1.2,1.2,87,0.00,CLR,,0.00,WeatherDisplay:10.37,2013-08-28 03:55:00,
2013-08-27 22:56:00,76.5,72.3,28.64,NW,315,1.2,1.2,87,0.00,CLR,,0.00,WeatherDisplay:10.37,2013-08-28 03:56:00,
2013-08-27 22:58:00,76.3,72.1,28.64,WNW,292,1.2,1.2,87,0.00,CLR,,0.00,WeatherDisplay:10.37,2013-08-28 03:58:00,
2013-08-27 22:59:00,76.3,72.1,28.64,WNW,292,1.2,1.2,87,0.00,CLR,,0.00,WeatherDisplay:10.37,2013-08-28 03:59:00,
2013-08-27 23:01:00,76.3,72.1,28.64,WNW,292,1.2,0.0,87,0.00,CLR,,0.00,WeatherDisplay:10.37,2013-08-28 04:01:00,
2013-08-27 23:06:00,76.3,72.5,28.64,NW,315,0.0,0.0,88,0.00,CLR,,0.00,WeatherDisplay:10.37,2013-08-28 04:06:00,
2013-08-27 23:07:00,76.3,72.5,28.64,NW,315,0.0,0.0,88,0.00,CLR,,0.00,WeatherDisplay:10.37,2013-08-28 04:07:00,
2013-08-27 23:11:00,76.1,72.3,28.64,WNW,292,1.2,0.0,88,0.00,CLR,,0.00,WeatherDisplay:10.37,2013-08-28 04:11:00,
2013-08-27 23:12:00,76.1,72.3,28.64,WNW,292,1.2,0.0,88,0.00,CLR,,0.00,WeatherDisplay:10.37,2013-08-28 04:12:00,
2013-08-27 23:15:00,76.1,72.3,28.64,WNW,302,0.0,1.0,88,0.00,CLR,,0.00,WeatherDisplay:10.37,2013-08-28 04:15:00,
2013-08-27 23:16:00,75.9,72.1,28.64,WNW,292,0.0,0.0,88,0.00,CLR,,0.00,WeatherDisplay:10.37,2013-08-28 04:16:00,
2013-08-27 23:17:00,75.9,72.1,28.64,WNW,292,0.0,0.0,88,0.00,CLR,,0.00,WeatherDisplay:10.37,2013-08-28 04:17:00,
2013-08-27 23:20:00,75.9,72.1,28.64,NW,315,0.0,0.0,88,0.00,CLR,,0.00,WeatherDisplay:10.37,2013-08-28 04:20:00,
2013-08-27 23:21:00,75.9,72.1,28.64,NW,315,0.0,0.0,88,0.00,CLR,,0.00,WeatherDisplay:10.37,2013-08-28 04:21:00,
2013-08-27 23:22:00,75.9,72.1,28.64,NNW,338,0.0,0.0,88,0.00,CLR,,0.00,WeatherDisplay:10.37,2013-08-28 04:22:00,
2013-08-27 23:23:00,75.9,72.1,28.64,NNE,22,0.0,0.0,88,0.00,CLR,,0.00,WeatherDisplay:10.37,2013-08-28 04:23:00,
2013-08-27 23:25:00,75.7,71.9,28.67,NE,45,1.6,0.0,88,0.00,CLR,,0.00,WeatherDisplay:10.37,2013-08-28 04:25:00,
2013-08-27 23:26:00,75.7,71.9,28.67,NE,45,2.3,2.3,88,0.00,CLR,,0.00,WeatherDisplay:10.37,2013-08-28 04:26:00,
2013-08-27 23:27:00,75.7,71.9,28.67,NE,45,2.3,2.3,88,0.00,CLR,,0.00,WeatherDisplay:10.37,2013-08-28 04:27:00,
2013-08-27 23:28:00,75.7,71.9,28.67,NE,45,2.3,2.3,88,0.00,CLR,,0.00,WeatherDisplay:10.37,2013-08-28 04:28:00,
2013-08-27 23:30:00,75.6,72.1,28.67,NE,45,0.0,0.0,89,0.00,CLR,,0.00,WeatherDisplay:10.37,2013-08-28 04:30:00,
2013-08-27 23:31:00,75.6,71.8,28.67,SW,225,1.4,0.0,88,0.00,CLR,,0.00,WeatherDisplay:10.37,2013-08-28 04:31:00,
2013-08-27 23:32:00,75.6,71.8,28.67,WSW,248,1.4,0.0,88,0.00,CLR,,0.00,WeatherDisplay:10.37,2013-08-28 04:32:00,
2013-08-27 23:33:00,75.7,72.3,28.67,West,270,1.2,0.0,89,0.00,CLR,,0.00,WeatherDisplay:10.37,2013-08-28 04:33:00,
2013-08-27 23:35:00,75.7,72.3,28.67,WNW,292,2.3,2.4,89,0.00,CLR,,0.00,WeatherDisplay:10.37,2013-08-28 04:35:00,
2013-08-27 23:36:00,75.7,72.3,28.67,WNW,292,2.3,2.4,89,0.00,CLR,,0.00,WeatherDisplay:10.37,2013-08-28 04:36:00,
2013-08-27 23:37:00,75.7,72.3,28.67,NNW,338,1.2,0.0,89,0.00,CLR,,0.00,WeatherDisplay:10.37,2013-08-28 04:37:00,
2013-08-27 23:38:00,75.7,72.3,28.67,NNW,338,1.2,0.0,89,0.00,CLR,,0.00,WeatherDisplay:10.37,2013-08-28 04:38:00,
2013-08-27 23:40:00,75.9,72.4,28.67,NNW,338,0.0,0.0,89,0.00,CLR,,0.00,WeatherDisplay:10.37,2013-08-28 04:40:00,
2013-08-27 23:41:00,75.9,72.8,28.67,NNW,338,0.0,0.0,90,0.00,CLR,,0.00,WeatherDisplay:10.37,2013-08-28 04:41:00,
2013-08-27 23:42:00,75.9,72.8,28.67,NNW,338,0.0,0.0,90,0.00,CLR,,0.00,WeatherDisplay:10.37,2013-08-28 04:42:00,
2013-08-27 23:44:00,76.1,73.0,28.67,NNW,338,1.2,0.0,90,0.00,CLR,,0.00,WeatherDisplay:10.37,2013-08-28 04:44:00,
2013-08-27 23:45:00,76.1,73.0,28.67,NNW,338,0.0,0.0,90,0.00,CLR,,0.00,WeatherDisplay:10.37,2013-08-28 04:45:00,
2013-08-27 23:47:00,76.3,72.8,28.67,NNW,338,0.0,0.0,89,0.00,CLR,,0.00,WeatherDisplay:10.37,2013-08-28 04:47:00,
2013-08-27 23:48:00,76.3,72.8,28.67,NNW,338,0.0,0.0,89,0.00,CLR,,0.00,WeatherDisplay:10.37,2013-08-28 04:48:00,
2013-08-27 23:49:00,76.3,72.8,28.67,NE,45,2.3,2.3,89,0.00,CLR,,0.00,WeatherDisplay:10.37,2013-08-28 04:49:00,
2013-08-27 23:50:00,76.3,72.8,28.67,NE,45,2.3,2.3,89,0.00,CLR,,0.00,WeatherDisplay:10.37,2013-08-28 04:50:00,
2013-08-27 23:51:00,76.3,72.8,28.67,NE,45,2.3,2.3,89,0.00,CLR,,0.00,WeatherDisplay:10.37,2013-08-28 04:51:00,
2013-08-27 23:52:00,76.1,72.6,28.67,NE,45,2.3,2.3,89,0.00,CLR,,0.00,WeatherDisplay:10.37,2013-08-28 04:52:00,
2013-08-27 23:53:00,76.1,73.0,28.67,NE,45,2.3,2.3,90,0.00,CLR,,0.00,WeatherDisplay:10.37,2013-08-28 04:53:00,
2013-08-27 23:54:00,76.1,73.0,28.67,NE,45,1.2,0.0,90,0.00,CLR,,0.00,WeatherDisplay:10.37,2013-08-28 04:54:00,
2013-08-27 23:56:00,76.1,73.0,28.67,NNW,338,2.3,2.3,90,0.00,CLR,,0.00,WeatherDisplay:10.37,2013-08-28 04:56:00,
2013-08-27 23:57:00,76.3,73.1,28.67,NNW,338,2.6,2.6,90,0.00,CLR,,0.00,WeatherDisplay:10.37,2013-08-28 04:57:00,
2013-08-27 23:58:00,76.5,73.3,28.67,North,0,2.4,2.4,90,0.00,CLR,,0.00,WeatherDisplay:10.37,2013-08-28 04:58:00,